Observation data for McCamey on 05/24/2020      Previous  Date  Next       Current Mesonet Observations  Soil Data  Daily Summary Page  Observations in Plain Language
KMC4 240500Z 12010KT 23/13 A2985 RMK A01 T02270130  RH  054%=      5-min Rain = 0
KMC4 240501Z 13011KT 23/13 A2985 RMK A01 T02270130  RH  054%=      5-min Rain = 0
KMC4 240502Z 13011KT 23/13 A2985 RMK A01 T02280130  RH  054%=      5-min Rain = 0
KMC4 240503Z 12008KT 23/13 A2985 RMK A01 T02280130  RH  054%=      5-min Rain = 0
KMC4 240504Z 12009KT 23/13 A2985 RMK A01 T02280130  RH  054%=      5-min Rain = 0
KMC4 240505Z 12007KT 23/13 A2985 RMK A01 T02280129  RH  054%=      5-min Rain = 0
KMC4 240506Z 12007KT 23/13 A2985 RMK A01 T02270129  RH  054%=      5-min Rain = 0
KMC4 240507Z 13007KT 23/13 A2985 RMK A01 T02280129  RH  054%=      5-min Rain = 0
KMC4 240508Z 12008KT 23/13 A2985 RMK A01 T02270128  RH  054%=      5-min Rain = 0
KMC4 240509Z 13009KT 23/13 A2985 RMK A01 T02280128  RH  053%=      5-min Rain = 0
KMC4 240510Z 12007KT 23/13 A2985 RMK A01 T02280128  RH  053%=      5-min Rain = 0
KMC4 240511Z 12007KT 23/13 A2985 RMK A01 T02280129  RH  054%=      5-min Rain = 0
KMC4 240512Z 12008KT 23/13 A2985 RMK A01 T02280129  RH  054%=      5-min Rain = 0
KMC4 240513Z 12007KT 23/13 A2985 RMK A01 T02280129  RH  054%=      5-min Rain = 0
KMC4 240514Z 12006KT 23/13 A2985 RMK A01 T02280129  RH  054%=      5-min Rain = 0
KMC4 240515Z 12007KT 23/13 A2985 RMK A01 T02270128  RH  054%=      5-min Rain = 0
KMC4 240516Z 12007KT 23/13 A2985 RMK A01 T02270129  RH  054%=      5-min Rain = 0
KMC4 240517Z 12008KT 23/13 A2985 RMK A01 T02260129  RH  054%=      5-min Rain = 0
KMC4 240518Z 13009KT 23/13 A2985 RMK A01 T02250129  RH  054%=      5-min Rain = 0
KMC4 240519Z 13009KT 23/13 A2985 RMK A01 T02250129  RH  055%=      5-min Rain = 0
KMC4 240520Z 13012KT 22/13 A2985 RMK A01 T02240128  RH  055%=      5-min Rain = 0
KMC4 240521Z 13010KT 22/13 A2985 RMK A01 T02240128  RH  054%=      5-min Rain = 0
KMC4 240522Z 13010KT 22/13 A2985 RMK A01 T02240127  RH  054%=      5-min Rain = 0
KMC4 240523Z 14009KT 23/13 A2985 RMK A01 T02250128  RH  054%=      5-min Rain = 0
KMC4 240524Z 13009KT 23/13 A2985 RMK A01 T02250128  RH  054%=      5-min Rain = 0
KMC4 240525Z 13010KT 22/13 A2985 RMK A01 T02240128  RH  055%=      5-min Rain = 0
KMC4 240526Z 13009KT 22/13 A2985 RMK A01 T02230128  RH  055%=      5-min Rain = 0
KMC4 240527Z 13010KT 22/13 A2985 RMK A01 T02230128  RH  055%=      5-min Rain = 0
KMC4 240528Z 13010KT 22/13 A2985 RMK A01 T02230128  RH  055%=      5-min Rain = 0
KMC4 240529Z 13011KT 22/13 A2985 RMK A01 T02230128  RH  055%=      5-min Rain = 0
KMC4 240530Z 12014KT 22/13 A2985 RMK A01 T02230127  RH  055%=      5-min Rain = 0
KMC4 240531Z 13011KT 22/13 A2985 RMK A01 T02240127  RH  054%=      5-min Rain = 0
KMC4 240532Z 13008KT 22/13 A2985 RMK A01 T02240128  RH  054%=      5-min Rain = 0
KMC4 240533Z 14010KT 22/13 A2985 RMK A01 T02230128  RH  055%=      5-min Rain = 0
KMC4 240534Z 13007KT 22/13 A2985 RMK A01 T02230128  RH  055%=      5-min Rain = 0
KMC4 240535Z 13009KT 22/13 A2985 RMK A01 T02220128  RH  055%=      5-min Rain = 0
KMC4 240536Z 14007KT 22/13 A2985 RMK A01 T02220127  RH  055%=      5-min Rain = 0
KMC4 240537Z 13008KT 22/13 A2985 RMK A01 T02220127  RH  055%=      5-min Rain = 0
KMC4 240538Z 13008KT 22/13 A2985 RMK A01 T02220127  RH  055%=      5-min Rain = 0
KMC4 240539Z 12006KT 22/13 A2985 RMK A01 T02220127  RH  055%=      5-min Rain = 0
KMC4 240540Z 14008KT 22/13 A2985 RMK A01 T02220127  RH  055%=      5-min Rain = 0
KMC4 240541Z 13007KT 22/13 A2985 RMK A01 T02220127  RH  055%=      5-min Rain = 0
KMC4 240542Z 13008KT 22/13 A2985 RMK A01 T02210127  RH  055%=      5-min Rain = 0
KMC4 240543Z 12009KT 22/13 A2985 RMK A01 T02200126  RH  055%=      5-min Rain = 0
KMC4 240544Z 13009KT 22/13 A2985 RMK A01 T02210126  RH  055%=      5-min Rain = 0
KMC4 240545Z 13010KT 22/13 A2985 RMK A01 T02220126  RH  054%=      5-min Rain = 0
KMC4 240546Z 13009KT 22/13 A2985 RMK A01 T02220126  RH  054%=      5-min Rain = 0
KMC4 240547Z 13009KT 22/13 A2985 RMK A01 T02220126  RH  054%=      5-min Rain = 0
KMC4 240548Z 14011KT 22/13 A2985 RMK A01 T02220126  RH  054%=      5-min Rain = 0
KMC4 240549Z 14011G16KT 22/13 A2985 RMK A01 T02220125  RH  054%=      5-min Rain = 0
KMC4 240550Z 14010KT 22/13 A2985 RMK A01 T02220125  RH  054%=      5-min Rain = 0
KMC4 240551Z 14012KT 22/13 A2985 RMK A01 T02220125  RH  054%=      5-min Rain = 0
KMC4 240552Z 13010KT 22/13 A2985 RMK A01 T02220125  RH  054%=      5-min Rain = 0
KMC4 240553Z 14014KT 22/12 A2985 RMK A01 T02230124  RH  054%=      5-min Rain = 0
KMC4 240554Z 14012G17KT 22/12 A2985 RMK A01 T02230124  RH  054%=      5-min Rain = 0
KMC4 240555Z 14012KT 22/13 A2985 RMK A01 T02230125  RH  054%=      5-min Rain = 0
KMC4 240556Z 14011KT 22/12 A2985 RMK A01 T02230124  RH  053%=      5-min Rain = 0
KMC4 240557Z 14011KT 22/13 A2985 RMK A01 T02230125  RH  054%=      5-min Rain = 0
KMC4 240558Z 13009KT 22/13 A2985 RMK A01 T02230125  RH  054%=      5-min Rain = 0
KMC4 240559Z 13008KT 22/13 A2985 RMK A01 T02220125  RH  054%=      5-min Rain = 0
KMC4 240600Z 13011KT 22/13 A2985 RMK A01 T02220126  RH  054%=      5-min Rain = 0
KMC4 240601Z 13010KT 22/13 A2985 RMK A01 T02220126  RH  054%=      5-min Rain = 0
KMC4 240602Z 13011G16KT 22/13 A2985 RMK A01 T02210125  RH  054%=      5-min Rain = 0
KMC4 240603Z 12010KT 22/13 A2985 RMK A01 T02220126  RH  054%=      5-min Rain = 0
KMC4 240604Z 13011KT 22/13 A2985 RMK A01 T02220126  RH  054%=      5-min Rain = 0
KMC4 240605Z 13011KT 22/13 A2985 RMK A01 T02220126  RH  055%=      5-min Rain = 0
KMC4 240606Z 13010KT 22/13 A2985 RMK A01 T02220127  RH  055%=      5-min Rain = 0
KMC4 240607Z 13010KT 22/13 A2985 RMK A01 T02220127  RH  055%=      5-min Rain = 0
KMC4 240608Z 13010KT 22/13 A2985 RMK A01 T02220127  RH  055%=      5-min Rain = 0
KMC4 240609Z 12009KT 22/13 A2985 RMK A01 T02220128  RH  055%=      5-min Rain = 0
KMC4 240610Z 13010KT 22/13 A2985 RMK A01 T02220127  RH  055%=      5-min Rain = 0
KMC4 240611Z 13011KT 22/13 A2985 RMK A01 T02220127  RH  055%=      5-min Rain = 0
KMC4 240612Z 13012KT 22/13 A2985 RMK A01 T02220127  RH  055%=      5-min Rain = 0
KMC4 240613Z 13015KT 22/13 A2985 RMK A01 T02220127  RH  055%=      5-min Rain = 0
KMC4 240614Z 13013KT 22/13 A2985 RMK A01 T02230127  RH  055%=      5-min Rain = 0
KMC4 240615Z 14012KT 22/13 A2985 RMK A01 T02230128  RH  055%=      5-min Rain = 0
KMC4 240616Z 13014KT 22/13 A2985 RMK A01 T02240128  RH  055%=      5-min Rain = 0
KMC4 240617Z 13013KT 22/13 A2985 RMK A01 T02240128  RH  055%=      5-min Rain = 0
KMC4 240618Z 12015KT 23/13 A2985 RMK A01 T02250129  RH  055%=      5-min Rain = 0
KMC4 240619Z 14014KT 23/13 A2985 RMK A01 T02250129  RH  055%=      5-min Rain = 0
KMC4 240620Z 14013KT 23/13 A2985 RMK A01 T02250130  RH  055%=      5-min Rain = 0
KMC4 240621Z 14015KT 23/13 A2985 RMK A01 T02250130  RH  055%=      5-min Rain = 0
KMC4 240622Z 13015KT 23/13 A2984 RMK A01 T02250130  RH  055%=      5-min Rain = 0
KMC4 240623Z 13019G26KT 23/13 A2984 RMK A01 T02260132  RH  055%=      5-min Rain = 0
KMC4 240624Z 13021G26KT 23/13 A2984 RMK A01 T02280133  RH  055%=      5-min Rain = 0
KMC4 240625Z 14020G25KT 23/13 A2984 RMK A01 T02290134  RH  055%=      5-min Rain = 0
KMC4 240626Z 14018KT 23/14 A2984 RMK A01 T02300135  RH  055%=      5-min Rain = 0
KMC4 240627Z 14019KT 23/14 A2984 RMK A01 T02300135  RH  055%=      5-min Rain = 0
KMC4 240628Z 15022G28KT 23/14 A2984 RMK A01 T02300135  RH  055%=      5-min Rain = 0
KMC4 240629Z 15023G29KT 23/14 A2984 RMK A01 T02310137  RH  055%=      5-min Rain = 0
KMC4 240630Z 14020G27KT 23/14 A2984 RMK A01 T02320137  RH  055%=      5-min Rain = 0
KMC4 240631Z 14019KT 23/14 A2984 RMK A01 T02320137  RH  055%=      5-min Rain = 0
KMC4 240632Z 14018KT 23/14 A2984 RMK A01 T02310137  RH  055%=      5-min Rain = 0
KMC4 240633Z 14019G24KT 23/14 A2984 RMK A01 T02310137  RH  055%=      5-min Rain = 0
KMC4 240634Z 14017G22KT 23/14 A2984 RMK A01 T02310137  RH  055%=      5-min Rain = 0
KMC4 240635Z 14019G24KT 23/14 A2984 RMK A01 T02300136  RH  055%=      5-min Rain = 0
KMC4 240636Z 14015KT 23/14 A2984 RMK A01 T02300136  RH  056%=      5-min Rain = 0
KMC4 240637Z 15016KT 23/14 A2984 RMK A01 T02290137  RH  056%=      5-min Rain = 0
KMC4 240638Z 14015KT 23/14 A2984 RMK A01 T02280138  RH  057%=      5-min Rain = 0
KMC4 240639Z 14020G25KT 23/14 A2984 RMK A01 T02280138  RH  057%=      5-min Rain = 0
KMC4 240640Z 14022G29KT 23/14 A2984 RMK A01 T02280139  RH  057%=      5-min Rain = 0
KMC4 240641Z 14018KT 23/14 A2984 RMK A01 T02290139  RH  057%=      5-min Rain = 0
KMC4 240642Z 14015KT 23/14 A2984 RMK A01 T02290139  RH  057%=      5-min Rain = 0
KMC4 240643Z 14016KT 23/14 A2984 RMK A01 T02290139  RH  057%=      5-min Rain = 0
KMC4 240644Z 14015G21KT 23/14 A2984 RMK A01 T02280138  RH  057%=      5-min Rain = 0
KMC4 240645Z 14017KT 23/14 A2984 RMK A01 T02280139  RH  057%=      5-min Rain = 0
KMC4 240646Z 14019KT 23/14 A2984 RMK A01 T02270139  RH  058%=      5-min Rain = 0
KMC4 240647Z 15020KT 23/14 A2984 RMK A01 T02270141  RH  058%=      5-min Rain = 0
KMC4 240648Z 15017KT 23/14 A2984 RMK A01 T02270141  RH  058%=      5-min Rain = 0
KMC4 240649Z 15017KT 23/14 A2984 RMK A01 T02280142  RH  058%=      5-min Rain = 0
KMC4 240650Z 16018KT 23/14 A2984 RMK A01 T02280142  RH  058%=      5-min Rain = 0
KMC4 240651Z 16015KT 23/14 A2983 RMK A01 T02280143  RH  058%=      5-min Rain = 0
KMC4 240652Z 15017G26KT 23/14 A2984 RMK A01 T02280143  RH  059%=      5-min Rain = 0
KMC4 240653Z 16020KT 23/14 A2983 RMK A01 T02280144  RH  059%=      5-min Rain = 0
KMC4 240654Z 16018KT 23/15 A2984 RMK A01 T02290145  RH  059%=      5-min Rain = 0
KMC4 240655Z 16019G24KT 23/15 A2983 RMK A01 T02290145  RH  059%=      5-min Rain = 0
KMC4 240656Z 16017KT 23/14 A2983 RMK A01 T02300144  RH  059%=      5-min Rain = 0
KMC4 240657Z 15015KT 23/15 A2983 RMK A01 T02300145  RH  059%=      5-min Rain = 0
KMC4 240658Z 15020KT 23/14 A2983 RMK A01 T02290144  RH  059%=      5-min Rain = 0
KMC4 240659Z 15017KT 23/15 A2983 RMK A01 T02280145  RH  059%=      5-min Rain = 0
KMC4 240700Z 15018KT 23/15 A2983 RMK A01 T02270145  RH  060%=      5-min Rain = 0
KMC4 240701Z 14019G24KT 23/15 A2983 RMK A01 T02270145  RH  060%=      5-min Rain = 0
KMC4 240702Z 15021KT 23/15 A2983 RMK A01 T02270146  RH  060%=      5-min Rain = 0
KMC4 240703Z 15018KT 23/15 A2983 RMK A01 T02270145  RH  060%=      5-min Rain = 0
KMC4 240704Z 15019G24KT 23/15 A2982 RMK A01 T02270146  RH  060%=      5-min Rain = 0
KMC4 240705Z 15018G23KT 23/15 A2983 RMK A01 T02270146  RH  060%=      5-min Rain = 0
KMC4 240706Z 15019KT 23/15 A2982 RMK A01 T02270146  RH  060%=      5-min Rain = 0
KMC4 240707Z 15019KT 23/15 A2982 RMK A01 T02270146  RH  060%=      5-min Rain = 0
KMC4 240708Z 14020G25KT 23/15 A2982 RMK A01 T02270146  RH  060%=      5-min Rain = 0
KMC4 240709Z 15019G25KT 23/15 A2982 RMK A01 T02270146  RH  060%=      5-min Rain = 0
KMC4 240710Z 14017KT 23/15 A2982 RMK A01 T02270146  RH  060%=      5-min Rain = 0
KMC4 240711Z 15015KT 23/15 A2982 RMK A01 T02270146  RH  060%=      5-min Rain = 0
KMC4 240712Z 15015KT 23/15 A2982 RMK A01 T02260146  RH  061%=      5-min Rain = 0
KMC4 240713Z 14015KT 23/15 A2982 RMK A01 T02250146  RH  061%=      5-min Rain = 0
KMC4 240714Z 15018KT 22/15 A2982 RMK A01 T02240146  RH  061%=      5-min Rain = 0
KMC4 240715Z 15018KT 23/15 A2982 RMK A01 T02250145  RH  061%=      5-min Rain = 0
KMC4 240716Z 15014KT 23/15 A2982 RMK A01 T02250145  RH  061%=      5-min Rain = 0
KMC4 240717Z 15012KT 23/15 A2982 RMK A01 T02250145  RH  061%=      5-min Rain = 0
KMC4 240718Z 15015KT 23/15 A2982 RMK A01 T02250145  RH  061%=      5-min Rain = 0
KMC4 240719Z 15015KT 22/15 A2982 RMK A01 T02240145  RH  061%=      5-min Rain = 0
KMC4 240720Z 15015KT 22/14 A2982 RMK A01 T02240144  RH  061%=      5-min Rain = 0
KMC4 240721Z 15015KT 22/14 A2982 RMK A01 T02240144  RH  060%=      5-min Rain = 0
KMC4 240722Z 15017G23KT 22/14 A2982 RMK A01 T02240143  RH  060%=      5-min Rain = 0
KMC4 240723Z 15016G21KT 23/14 A2982 RMK A01 T02250141  RH  059%=      5-min Rain = 0
KMC4 240724Z 15017G22KT 23/14 A2982 RMK A01 T02260142  RH  059%=      5-min Rain = 0
KMC4 240725Z 15018KT 23/14 A2982 RMK A01 T02260141  RH  059%=      5-min Rain = 0
KMC4 240726Z 15017G22KT 23/14 A2982 RMK A01 T02260141  RH  059%=      5-min Rain = 0
KMC4 240727Z 15018G23KT 23/14 A2982 RMK A01 T02260141  RH  058%=      5-min Rain = 0
KMC4 240728Z 15016KT 23/14 A2982 RMK A01 T02260140  RH  058%=      5-min Rain = 0
KMC4 240729Z 15017KT 23/14 A2982 RMK A01 T02260141  RH  058%=      5-min Rain = 0
KMC4 240730Z 15017KT 23/14 A2982 RMK A01 T02260141  RH  059%=      5-min Rain = 0
KMC4 240731Z 15018G24KT 23/14 A2982 RMK A01 T02250140  RH  059%=      5-min Rain = 0
KMC4 240732Z 15021KT 23/14 A2982 RMK A01 T02250139  RH  058%=      5-min Rain = 0
KMC4 240733Z 15020KT 23/14 A2982 RMK A01 T02250138  RH  058%=      5-min Rain = 0
KMC4 240734Z 16020KT 23/14 A2982 RMK A01 T02260139  RH  058%=      5-min Rain = 0
KMC4 240735Z 15019KT 23/14 A2981 RMK A01 T02260139  RH  058%=      5-min Rain = 0
KMC4 240736Z 16018KT 23/14 A2981 RMK A01 T02250140  RH  058%=      5-min Rain = 0
KMC4 240737Z 16019KT 23/14 A2981 RMK A01 T02250140  RH  059%=      5-min Rain = 0
KMC4 240738Z 16017KT 22/14 A2981 RMK A01 T02240139  RH  059%=      5-min Rain = 0
KMC4 240739Z 16017KT 22/14 A2981 RMK A01 T02240139  RH  059%=      5-min Rain = 0
KMC4 240740Z 17023KT 22/14 A2981 RMK A01 T02240139  RH  059%=      5-min Rain = 0
KMC4 240741Z 16020G26KT 22/14 A2981 RMK A01 T02240139  RH  059%=      5-min Rain = 0
KMC4 240742Z 17016G21KT 22/14 A2981 RMK A01 T02240139  RH  059%=      5-min Rain = 0
KMC4 240743Z 16013KT 22/14 A2981 RMK A01 T02230139  RH  059%=      5-min Rain = 0
KMC4 240744Z 17016G21KT 22/14 A2981 RMK A01 T02220139  RH  059%=      5-min Rain = 0
KMC4 240745Z 16018G23KT 22/14 A2981 RMK A01 T02210139  RH  060%=      5-min Rain = 0
KMC4 240746Z 17017KT 22/14 A2981 RMK A01 T02220140  RH  060%=      5-min Rain = 0
KMC4 240747Z 17015KT 22/14 A2981 RMK A01 T02210140  RH  060%=      5-min Rain = 0
KMC4 240748Z 16018KT 22/14 A2981 RMK A01 T02210139  RH  060%=      5-min Rain = 0
KMC4 240749Z 16019KT 22/14 A2981 RMK A01 T02210139  RH  060%=      5-min Rain = 0
KMC4 240750Z 16016KT 22/14 A2981 RMK A01 T02210139  RH  060%=      5-min Rain = 0
KMC4 240751Z 16015G21KT 22/14 A2981 RMK A01 T02200140  RH  060%=      5-min Rain = 0
KMC4 240752Z 16017KT 22/14 A2981 RMK A01 T02200140  RH  060%=      5-min Rain = 0
KMC4 240753Z 16018KT 22/14 A2981 RMK A01 T02200140  RH  060%=      5-min Rain = 0
KMC4 240754Z 16015KT 22/14 A2981 RMK A01 T02200140  RH  060%=      5-min Rain = 0
KMC4 240755Z 15015KT 22/14 A2981 RMK A01 T02200139  RH  060%=      5-min Rain = 0
KMC4 240756Z 15016KT 22/14 A2981 RMK A01 T02190140  RH  061%=      5-min Rain = 0
KMC4 240757Z 15016KT 22/14 A2981 RMK A01 T02190140  RH  061%=      5-min Rain = 0
KMC4 240758Z 15015KT 22/14 A2981 RMK A01 T02180139  RH  061%=      5-min Rain = 0
KMC4 240759Z 15014G19KT 22/14 A2981 RMK A01 T02180139  RH  061%=      5-min Rain = 0
KMC4 240800Z 15017KT 22/14 A2981 RMK A01 T02180139  RH  061%=      5-min Rain = 0
KMC4 240801Z 15016KT 22/14 A2981 RMK A01 T02180139  RH  061%=      5-min Rain = 0
KMC4 240802Z 15017KT 22/14 A2981 RMK A01 T02180139  RH  061%=      5-min Rain = 0
KMC4 240803Z 15014KT 22/14 A2981 RMK A01 T02180139  RH  061%=      5-min Rain = 0
KMC4 240804Z 15015KT 22/14 A2981 RMK A01 T02180139  RH  061%=      5-min Rain = 0
KMC4 240805Z 15015KT 22/14 A2981 RMK A01 T02170139  RH  061%=      5-min Rain = 0
KMC4 240806Z 15017KT 22/14 A2981 RMK A01 T02170140  RH  061%=      5-min Rain = 0
KMC4 240807Z 15015KT 22/14 A2981 RMK A01 T02170139  RH  061%=      5-min Rain = 0
KMC4 240808Z 15014KT 22/14 A2981 RMK A01 T02170140  RH  061%=      5-min Rain = 0
KMC4 240809Z 14014KT 22/14 A2981 RMK A01 T02170140  RH  061%=      5-min Rain = 0
KMC4 240810Z 15015KT 22/14 A2981 RMK A01 T02170140  RH  062%=      5-min Rain = 0
KMC4 240811Z 15014G19KT 22/14 A2981 RMK A01 T02160140  RH  062%=      5-min Rain = 0
KMC4 240812Z 15013KT 22/14 A2981 RMK A01 T02170140  RH  062%=      5-min Rain = 0
KMC4 240813Z 15011G16KT 22/14 A2981 RMK A01 T02160140  RH  062%=      5-min Rain = 0
KMC4 240814Z 14013KT 22/14 A2981 RMK A01 T02150140  RH  062%=      5-min Rain = 0
KMC4 240815Z 14015G20KT 22/14 A2981 RMK A01 T02150141  RH  062%=      5-min Rain = 0
KMC4 240816Z 15013KT 22/14 A2981 RMK A01 T02150141  RH  062%=      5-min Rain = 0
KMC4 240817Z 15013KT 22/14 A2981 RMK A01 T02160141  RH  062%=      5-min Rain = 0
KMC4 240818Z 16014G20KT 22/14 A2981 RMK A01 T02150141  RH  063%=      5-min Rain = 0
KMC4 240819Z 15015KT 22/14 A2981 RMK A01 T02150141  RH  063%=      5-min Rain = 0
KMC4 240820Z 15013KT 22/14 A2981 RMK A01 T02150142  RH  063%=      5-min Rain = 0
KMC4 240821Z 16015KT 22/14 A2981 RMK A01 T02150142  RH  063%=      5-min Rain = 0
KMC4 240822Z 16015KT 22/14 A2981 RMK A01 T02150142  RH  063%=      5-min Rain = 0
KMC4 240823Z 16013KT 22/14 A2981 RMK A01 T02150142  RH  063%=      5-min Rain = 0
KMC4 240824Z 15015G20KT 22/14 A2981 RMK A01 T02150142  RH  063%=      5-min Rain = 0
KMC4 240825Z 16016KT 22/14 A298 RMK A01 T02150143  RH  063%=      5-min Rain = 0
KMC4 240826Z 15013KT 22/14 A298 RMK A01 T02160143  RH  063%=      5-min Rain = 0
KMC4 240827Z 15014KT 22/14 A298 RMK A01 T02150143  RH  063%=      5-min Rain = 0
KMC4 240828Z 15016KT 22/14 A298 RMK A01 T02150143  RH  063%=      5-min Rain = 0
KMC4 240829Z 16014KT 22/14 A298 RMK A01 T02150143  RH  064%=      5-min Rain = 0
KMC4 240830Z 15018G23KT 22/14 A298 RMK A01 T02150143  RH  064%=      5-min Rain = 0
KMC4 240831Z 15014G19KT 22/14 A298 RMK A01 T02160144  RH  064%=      5-min Rain = 0
KMC4 240832Z 15015KT 22/14 A298 RMK A01 T02160144  RH  064%=      5-min Rain = 0
KMC4 240833Z 15016KT 22/14 A298 RMK A01 T02160144  RH  064%=      5-min Rain = 0
KMC4 240834Z 15015KT 22/15 A298 RMK A01 T02160145  RH  064%=      5-min Rain = 0
KMC4 240835Z 15016G21KT 22/14 A298 RMK A01 T02150144  RH  064%=      5-min Rain = 0
KMC4 240836Z 15017G22KT 22/15 A298 RMK A01 T02160145  RH  064%=      5-min Rain = 0
KMC4 240837Z 15015KT 22/15 A298 RMK A01 T02160145  RH  064%=      5-min Rain = 0
KMC4 240838Z 15014KT 22/15 A2981 RMK A01 T02150145  RH  064%=      5-min Rain = 0
KMC4 240839Z 14014KT 21/15 A2981 RMK A01 T02140145  RH  065%=      5-min Rain = 0
KMC4 240840Z 15016KT 21/15 A2981 RMK A01 T02140145  RH  065%=      5-min Rain = 0
KMC4 240841Z 15015KT 21/15 A2981 RMK A01 T02140146  RH  065%=      5-min Rain = 0
KMC4 240842Z 15015G20KT 21/15 A2981 RMK A01 T02130146  RH  065%=      5-min Rain = 0
KMC4 240843Z 15013G19KT 21/15 A2981 RMK A01 T02130146  RH  065%=      5-min Rain = 0
KMC4 240844Z 14018KT 21/15 A2981 RMK A01 T02130147  RH  066%=      5-min Rain = 0
KMC4 240845Z 14017KT 21/15 A2981 RMK A01 T02140147  RH  066%=      5-min Rain = 0
KMC4 240846Z 14017KT 21/15 A2981 RMK A01 T02140147  RH  065%=      5-min Rain = 0
KMC4 240847Z 14018KT 21/15 A2981 RMK A01 T02140147  RH  066%=      5-min Rain = 0
KMC4 240848Z 14016KT 21/15 A2981 RMK A01 T02140147  RH  066%=      5-min Rain = 0
KMC4 240849Z 14016KT 21/15 A2981 RMK A01 T02140148  RH  066%=      5-min Rain = 0
KMC4 240850Z 14017KT 21/15 A2981 RMK A01 T02130148  RH  066%=      5-min Rain = 0
KMC4 240851Z 14015KT 21/15 A2981 RMK A01 T02130147  RH  066%=      5-min Rain = 0
KMC4 240852Z 14018KT 21/15 A2981 RMK A01 T02130148  RH  066%=      5-min Rain = 0
KMC4 240853Z 14016KT 21/15 A2981 RMK A01 T02130148  RH  066%=      5-min Rain = 0
KMC4 240854Z 15016KT 21/15 A2981 RMK A01 T02130148  RH  066%=      5-min Rain = 0
KMC4 240855Z 15016KT 21/15 A2981 RMK A01 T02130148  RH  066%=      5-min Rain = 0
KMC4 240856Z 14013KT 21/15 A2981 RMK A01 T02130148  RH  066%=      5-min Rain = 0
KMC4 240857Z 15014KT 21/15 A2981 RMK A01 T02120148  RH  067%=      5-min Rain = 0
KMC4 240858Z 15013KT 21/15 A2981 RMK A01 T02120148  RH  067%=      5-min Rain = 0
KMC4 240859Z 15016KT 21/15 A2981 RMK A01 T02120148  RH  067%=      5-min Rain = 0
KMC4 240900Z 15016KT 21/15 A2981 RMK A01 T02110148  RH  067%=      5-min Rain = 0
KMC4 240901Z 14015KT 21/15 A2981 RMK A01 T02120148  RH  067%=      5-min Rain = 0
KMC4 240902Z 15015KT 21/15 A2981 RMK A01 T02120148  RH  067%=      5-min Rain = 0
KMC4 240903Z 15015KT 21/15 A2981 RMK A01 T02120148  RH  067%=      5-min Rain = 0
KMC4 240904Z 15015KT 21/15 A2981 RMK A01 T02110148  RH  067%=      5-min Rain = 0
KMC4 240905Z 15013KT 21/15 A2981 RMK A01 T02110148  RH  067%=      5-min Rain = 0
KMC4 240906Z 15013KT 21/15 A2981 RMK A01 T02110148  RH  067%=      5-min Rain = 0
KMC4 240907Z 15014KT 21/15 A2981 RMK A01 T02110148  RH  067%=      5-min Rain = 0
KMC4 240908Z 15013KT 21/15 A2982 RMK A01 T02110148  RH  067%=      5-min Rain = 0
KMC4 240909Z 15013KT 21/15 A2982 RMK A01 T02110148  RH  067%=      5-min Rain = 0
KMC4 240910Z 15014G19KT 21/15 A2982 RMK A01 T02110148  RH  068%=      5-min Rain = 0
KMC4 240911Z 15014KT 21/15 A2982 RMK A01 T02110149  RH  068%=      5-min Rain = 0
KMC4 240912Z 15014KT 21/15 A2982 RMK A01 T02110149  RH  068%=      5-min Rain = 0
KMC4 240913Z 16013KT 21/15 A2982 RMK A01 T02110149  RH  068%=      5-min Rain = 0
KMC4 240914Z 15015KT 21/15 A2982 RMK A01 T02110149  RH  068%=      5-min Rain = 0
KMC4 240915Z 15013KT 21/15 A2982 RMK A01 T02110149  RH  068%=      5-min Rain = 0
KMC4 240916Z 16013KT 21/15 A2982 RMK A01 T02110150  RH  068%=      5-min Rain = 0
KMC4 240917Z 16012KT 21/15 A2982 RMK A01 T02110150  RH  068%=      5-min Rain = 0
KMC4 240918Z 15015KT 21/15 A2982 RMK A01 T02110150  RH  068%=      5-min Rain = 0
KMC4 240919Z 15016KT 21/15 A2982 RMK A01 T02110150  RH  068%=      5-min Rain = 0
KMC4 240920Z 16016KT 21/15 A2982 RMK A01 T02110150  RH  068%=      5-min Rain = 0
KMC4 240921Z 16014KT 21/15 A2982 RMK A01 T02110150  RH  068%=      5-min Rain = 0
KMC4 240922Z 15015KT 21/15 A2982 RMK A01 T02110150  RH  068%=      5-min Rain = 0
KMC4 240923Z 15015KT 21/15 A2982 RMK A01 T02110150  RH  068%=      5-min Rain = 0
KMC4 240924Z 15016KT 21/15 A2982 RMK A01 T02110150  RH  068%=      5-min Rain = 0
KMC4 240925Z 15013KT 21/15 A2982 RMK A01 T02120150  RH  068%=      5-min Rain = 0
KMC4 240926Z 15015KT 21/15 A2982 RMK A01 T02120150  RH  068%=      5-min Rain = 0
KMC4 240927Z 15015KT 21/15 A2982 RMK A01 T02110150  RH  068%=      5-min Rain = 0
KMC4 240928Z 15015KT 21/15 A2982 RMK A01 T02120150  RH  068%=      5-min Rain = 0
KMC4 240929Z 15016KT 21/15 A2982 RMK A01 T02120150  RH  068%=      5-min Rain = 0
KMC4 240930Z 15015KT 21/15 A2982 RMK A01 T02120150  RH  068%=      5-min Rain = 0
KMC4 240931Z 15014KT 21/15 A2982 RMK A01 T02120150  RH  068%=      5-min Rain = 0
KMC4 240932Z 15015KT 21/15 A2982 RMK A01 T02130150  RH  068%=      5-min Rain = 0
KMC4 240933Z 15015KT 21/15 A2982 RMK A01 T02130150  RH  067%=      5-min Rain = 0
KMC4 240934Z 16014KT 21/15 A2982 RMK A01 T02120149  RH  067%=      5-min Rain = 0
KMC4 240935Z 15013KT 21/15 A2982 RMK A01 T02130149  RH  067%=      5-min Rain = 0
KMC4 240936Z 15012KT 21/15 A2982 RMK A01 T02140149  RH  066%=      5-min Rain = 0
KMC4 240937Z 15014KT 21/15 A2982 RMK A01 T02140149  RH  067%=      5-min Rain = 0
KMC4 240938Z 15012KT 21/15 A2982 RMK A01 T02130149  RH  067%=      5-min Rain = 0
KMC4 240939Z 16014KT 21/15 A2982 RMK A01 T02130149  RH  067%=      5-min Rain = 0
KMC4 240940Z 16012KT 21/15 A2982 RMK A01 T02130149  RH  067%=      5-min Rain = 0
KMC4 240941Z 15012KT 21/15 A2982 RMK A01 T02130149  RH  067%=      5-min Rain = 0
KMC4 240942Z 15014KT 21/15 A2982 RMK A01 T02130149  RH  067%=      5-min Rain = 0
KMC4 240943Z 15013KT 21/15 A2982 RMK A01 T02130148  RH  066%=      5-min Rain = 0
KMC4 240944Z 15014KT 21/15 A2982 RMK A01 T02140148  RH  066%=      5-min Rain = 0
KMC4 240945Z 14012KT 22/15 A2982 RMK A01 T02150148  RH  066%=      5-min Rain = 0
KMC4 240946Z 14011KT 21/15 A2982 RMK A01 T02140148  RH  066%=      5-min Rain = 0
KMC4 240947Z 14012KT 21/15 A2982 RMK A01 T02130148  RH  066%=      5-min Rain = 0
KMC4 240948Z 14012KT 21/15 A2982 RMK A01 T02130148  RH  066%=      5-min Rain = 0
KMC4 240949Z 15011KT 21/15 A2982 RMK A01 T02130148  RH  066%=      5-min Rain = 0
KMC4 240950Z 14012KT 21/15 A2982 RMK A01 T02130148  RH  066%=      5-min Rain = 0
KMC4 240951Z 15014KT 21/15 A2982 RMK A01 T02130147  RH  066%=      5-min Rain = 0
KMC4 240952Z 14011KT 22/15 A2982 RMK A01 T02150148  RH  066%=      5-min Rain = 0
KMC4 240953Z 15014KT 22/15 A2982 RMK A01 T02160148  RH  065%=      5-min Rain = 0
KMC4 240954Z 15012KT 22/15 A2982 RMK A01 T02180148  RH  065%=      5-min Rain = 0
KMC4 240955Z 14008KT 22/15 A2982 RMK A01 T02180148  RH  064%=      5-min Rain = 0
KMC4 240956Z 14007KT 22/15 A2982 RMK A01 T02180148  RH  065%=      5-min Rain = 0
KMC4 240957Z 14008KT 22/15 A2983 RMK A01 T02150148  RH  065%=      5-min Rain = 0
KMC4 240958Z 14010KT 21/15 A2983 RMK A01 T02140148  RH  066%=      5-min Rain = 0
KMC4 240959Z 14008KT 21/15 A2982 RMK A01 T02140149  RH  066%=      5-min Rain = 0
KMC4 241000Z 13011KT 21/15 A2982 RMK A01 T02140149  RH  066%=      5-min Rain = 0
KMC4 241001Z 13011KT 22/15 A2982 RMK A01 T02150150  RH  066%=      5-min Rain = 0
KMC4 241002Z 14012KT 22/15 A2982 RMK A01 T02170150  RH  066%=      5-min Rain = 0
KMC4 241003Z 12009KT 22/15 A2982 RMK A01 T02180150  RH  065%=      5-min Rain = 0
KMC4 241004Z 12008KT 22/15 A2982 RMK A01 T02170150  RH  065%=      5-min Rain = 0
KMC4 241005Z 14010KT 22/15 A2982 RMK A01 T02160150  RH  066%=      5-min Rain = 0
KMC4 241006Z 13010KT 22/15 A2982 RMK A01 T02160151  RH  066%=      5-min Rain = 0
KMC4 241007Z 14008KT 22/15 A2982 RMK A01 T02180152  RH  066%=      5-min Rain = 0
KMC4 241008Z 13009KT 22/15 A2983 RMK A01 T02180152  RH  066%=      5-min Rain = 0
KMC4 241009Z 15008KT 22/15 A2983 RMK A01 T02180152  RH  066%=      5-min Rain = 0
KMC4 241010Z 13009KT 22/15 A2983 RMK A01 T02180152  RH  066%=      5-min Rain = 0
KMC4 241011Z 12009KT 22/15 A2983 RMK A01 T02180152  RH  066%=      5-min Rain = 0
KMC4 241012Z 13008KT 22/15 A2983 RMK A01 T02170153  RH  067%=      5-min Rain = 0
KMC4 241013Z 14009KT 22/15 A2983 RMK A01 T02170153  RH  067%=      5-min Rain = 0
KMC4 241014Z 13010KT 22/15 A2983 RMK A01 T02170153  RH  067%=      5-min Rain = 0
KMC4 241015Z 13008KT 22/15 A2983 RMK A01 T02170153  RH  067%=      5-min Rain = 0
KMC4 241016Z 14007KT 22/15 A2983 RMK A01 T02180154  RH  067%=      5-min Rain = 0
KMC4 241017Z 14010G18KT 22/15 A2983 RMK A01 T02190154  RH  067%=      5-min Rain = 0
KMC4 241018Z 14014KT 22/15 A2983 RMK A01 T02180154  RH  067%=      5-min Rain = 0
KMC4 241019Z 15013KT 22/15 A2983 RMK A01 T02180153  RH  067%=      5-min Rain = 0
KMC4 241020Z 14012KT 22/15 A2983 RMK A01 T02190153  RH  066%=      5-min Rain = 0
KMC4 241021Z 16012KT 22/15 A2984 RMK A01 T02200154  RH  066%=      5-min Rain = 0
KMC4 241022Z 15010KT 22/15 A2984 RMK A01 T02200154  RH  066%=      5-min Rain = 0
KMC4 241023Z 14011KT 22/15 A2984 RMK A01 T02200153  RH  066%=      5-min Rain = 0
KMC4 241024Z 15011KT 22/15 A2984 RMK A01 T02190153  RH  066%=      5-min Rain = 0
KMC4 241025Z 14011KT 22/15 A2984 RMK A01 T02180153  RH  067%=      5-min Rain = 0
KMC4 241026Z 14009KT 22/15 A2984 RMK A01 T02180153  RH  067%=      5-min Rain = 0
KMC4 241027Z 12013KT 22/15 A2984 RMK A01 T02170153  RH  067%=      5-min Rain = 0
KMC4 241028Z 12013KT 22/15 A2983 RMK A01 T02170153  RH  067%=      5-min Rain = 0
KMC4 241029Z 13012KT 22/15 A2984 RMK A01 T02180153  RH  066%=      5-min Rain = 0
KMC4 241030Z 14012KT 22/15 A2984 RMK A01 T02180153  RH  066%=      5-min Rain = 0
KMC4 241031Z 14016G21KT 22/15 A2984 RMK A01 T02180153  RH  066%=      5-min Rain = 0
KMC4 241032Z 15012KT 22/15 A2984 RMK A01 T02190153  RH  066%=      5-min Rain = 0
KMC4 241033Z 15011KT 22/15 A2984 RMK A01 T02190153  RH  066%=      5-min Rain = 0
KMC4 241034Z 15015KT 22/15 A2984 RMK A01 T02180153  RH  066%=      5-min Rain = 0
KMC4 241035Z 15011KT 22/15 A2984 RMK A01 T02190153  RH  066%=      5-min Rain = 0
KMC4 241036Z 16015KT 22/15 A2984 RMK A01 T02180153  RH  066%=      5-min Rain = 0
KMC4 241037Z 14015KT 22/15 A2984 RMK A01 T02180153  RH  066%=      5-min Rain = 0
KMC4 241038Z 15014KT 22/15 A2984 RMK A01 T02180153  RH  066%=      5-min Rain = 0
KMC4 241039Z 15013KT 22/15 A2985 RMK A01 T02180153  RH  066%=      5-min Rain = 0
KMC4 241040Z 16013KT 22/15 A2985 RMK A01 T02180154  RH  067%=      5-min Rain = 0
KMC4 241041Z 16013KT 22/15 A2985 RMK A01 T02180154  RH  067%=      5-min Rain = 0
KMC4 241042Z 15012KT 22/15 A2985 RMK A01 T02180154  RH  067%=      5-min Rain = 0
KMC4 241043Z 15015G20KT 22/15 A2985 RMK A01 T02180154  RH  067%=      5-min Rain = 0
KMC4 241044Z 15013KT 22/15 A2985 RMK A01 T02180154  RH  067%=      5-min Rain = 0
KMC4 241045Z 16014KT 22/15 A2985 RMK A01 T02170154  RH  067%=      5-min Rain = 0
KMC4 241046Z 16014KT 22/15 A2985 RMK A01 T02170154  RH  067%=      5-min Rain = 0
KMC4 241047Z 17012KT 22/15 A2985 RMK A01 T02180154  RH  067%=      5-min Rain = 0
KMC4 241048Z 17010KT 22/15 A2985 RMK A01 T02170154  RH  067%=      5-min Rain = 0
KMC4 241049Z 16011KT 22/15 A2985 RMK A01 T02160154  RH  068%=      5-min Rain = 0
KMC4 241050Z 15012KT 22/15 A2985 RMK A01 T02160154  RH  068%=      5-min Rain = 0
KMC4 241051Z 16012KT 22/15 A2985 RMK A01 T02160154  RH  068%=      5-min Rain = 0
KMC4 241052Z 15012KT 22/15 A2985 RMK A01 T02160154  RH  068%=      5-min Rain = 0
KMC4 241053Z 15012KT 22/15 A2985 RMK A01 T02160154  RH  068%=      5-min Rain = 0
KMC4 241054Z 15014KT 22/16 A2985 RMK A01 T02160155  RH  068%=      5-min Rain = 0
KMC4 241055Z 16011KT 22/16 A2985 RMK A01 T02160155  RH  068%=      5-min Rain = 0
KMC4 241056Z 17011KT 22/16 A2985 RMK A01 T02160155  RH  068%=      5-min Rain = 0
KMC4 241057Z 16011KT 22/16 A2985 RMK A01 T02160155  RH  068%=      5-min Rain = 0
KMC4 241058Z 17012KT 22/16 A2985 RMK A01 T02160155  RH  068%=      5-min Rain = 0
KMC4 241059Z 16012KT 22/16 A2985 RMK A01 T02150155  RH  069%=      5-min Rain = 0
KMC4 241100Z 15011KT 22/16 A2985 RMK A01 T02150156  RH  069%=      5-min Rain = 0
KMC4 241101Z 15013KT 21/16 A2984 RMK A01 T02140155  RH  069%=      5-min Rain = 0
KMC4 241102Z 15012KT 21/16 A2984 RMK A01 T02140156  RH  069%=      5-min Rain = 0
KMC4 241103Z 15013KT 21/16 A2984 RMK A01 T02140156  RH  070%=      5-min Rain = 0
KMC4 241104Z 15014KT 21/16 A2984 RMK A01 T02130156  RH  070%=      5-min Rain = 0
KMC4 241105Z 15016KT 21/16 A2984 RMK A01 T02130157  RH  070%=      5-min Rain = 0
KMC4 241106Z 15015KT 21/16 A2984 RMK A01 T02130157  RH  070%=      5-min Rain = 0
KMC4 241107Z 16014KT 21/16 A2984 RMK A01 T02130157  RH  070%=      5-min Rain = 0
KMC4 241108Z 16015KT 21/16 A2984 RMK A01 T02130158  RH  071%=      5-min Rain = 0
KMC4 241109Z 16016KT 21/16 A2984 RMK A01 T02140159  RH  071%=      5-min Rain = 0
KMC4 241110Z 16014KT 21/16 A2984 RMK A01 T02140159  RH  071%=      5-min Rain = 0
KMC4 241111Z 15015KT 21/16 A2984 RMK A01 T02140159  RH  071%=      5-min Rain = 0
KMC4 241112Z 16017KT 21/16 A2984 RMK A01 T02140160  RH  071%=      5-min Rain = 0
KMC4 241113Z 16015KT 21/16 A2984 RMK A01 T02140160  RH  071%=      5-min Rain = 0
KMC4 241114Z 16012KT 21/16 A2984 RMK A01 T02140160  RH  071%=      5-min Rain = 0
KMC4 241115Z 16014KT 21/16 A2984 RMK A01 T02130160  RH  071%=      5-min Rain = 0
KMC4 241116Z 16012G17KT 21/16 A2984 RMK A01 T02130159  RH  071%=      5-min Rain = 0
KMC4 241117Z 15014KT 21/16 A2984 RMK A01 T02120158  RH  071%=      5-min Rain = 0
KMC4 241118Z 16015KT 21/16 A2984 RMK A01 T02120158  RH  071%=      5-min Rain = 0
KMC4 241119Z 15013KT 21/16 A2984 RMK A01 T02120158  RH  071%=      5-min Rain = 0
KMC4 241120Z 15012KT 21/16 A2984 RMK A01 T02110158  RH  072%=      5-min Rain = 0
KMC4 241121Z 16012KT 21/16 A2984 RMK A01 T02110158  RH  072%=      5-min Rain = 0
KMC4 241122Z 16011KT 21/16 A2984 RMK A01 T02100158  RH  072%=      5-min Rain = 0
KMC4 241123Z 16011KT 21/16 A2984 RMK A01 T02100158  RH  072%=      5-min Rain = 0
KMC4 241124Z 16012KT 21/16 A2984 RMK A01 T02100159  RH  073%=      5-min Rain = 0
KMC4 241125Z 16010G15KT 21/16 A2985 RMK A01 T02100160  RH  073%=      5-min Rain = 0
KMC4 241126Z 15011KT 21/16 A2985 RMK A01 T02100160  RH  073%=      5-min Rain = 0
KMC4 241127Z 15011KT 21/16 A2985 RMK A01 T02100161  RH  074%=      5-min Rain = 0
KMC4 241128Z 14009KT 21/16 A2985 RMK A01 T02090161  RH  074%=      5-min Rain = 0
KMC4 241129Z 14008KT 21/16 A2985 RMK A01 T02100162  RH  074%=      5-min Rain = 0
KMC4 241130Z 14008KT 21/16 A2985 RMK A01 T02090162  RH  074%=      5-min Rain = 0
KMC4 241131Z 13007KT 21/16 A2985 RMK A01 T02090162  RH  075%=      5-min Rain = 0
KMC4 241132Z 11006KT 21/16 A2985 RMK A01 T02090162  RH  075%=      5-min Rain = 0
KMC4 241133Z 08004KT 21/16 A2985 RMK A01 T02080161  RH  075%=      5-min Rain = 0
KMC4 241134Z 06005KT 21/16 A2985 RMK A01 T02070161  RH  075%=      5-min Rain = 0
KMC4 241135Z 08006KT 21/16 A2985 RMK A01 T02070161  RH  075%=      5-min Rain = 0
KMC4 241136Z 08006KT 21/16 A2985 RMK A01 T02070161  RH  075%=      5-min Rain = 0
KMC4 241137Z 07005KT 21/16 A2985 RMK A01 T02070161  RH  075%=      5-min Rain = 0
KMC4 241138Z 08004KT 21/16 A2985 RMK A01 T02060161  RH  076%=      5-min Rain = 0
KMC4 241139Z 07005KT 21/16 A2986 RMK A01 T02060161  RH  076%=      5-min Rain = 0
KMC4 241140Z 10006KT 21/16 A2986 RMK A01 T02050162  RH  076%=      5-min Rain = 0
KMC4 241141Z 08005KT 21/16 A2986 RMK A01 T02050162  RH  076%=      5-min Rain = 0
KMC4 241142Z 07005KT 21/16 A2986 RMK A01 T02050162  RH  076%=      5-min Rain = 0
KMC4 241143Z 07004KT 21/16 A2986 RMK A01 T02060162  RH  076%=      5-min Rain = 0
KMC4 241144Z 07005KT 21/16 A2986 RMK A01 T02050162  RH  076%=      5-min Rain = 0
KMC4 241145Z 06005KT 21/16 A2986 RMK A01 T02050163  RH  077%=      5-min Rain = 0
KMC4 241146Z 08006KT 21/16 A2985 RMK A01 T02050163  RH  077%=      5-min Rain = 0
KMC4 241147Z 08008KT 21/16 A2985 RMK A01 T02050163  RH  077%=      5-min Rain = 0
KMC4 241148Z 08005KT 21/16 A2985 RMK A01 T02050164  RH  077%=      5-min Rain = 0
KMC4 241149Z 08005KT 21/16 A2985 RMK A01 T02050164  RH  077%=      5-min Rain = 0
KMC4 241150Z 08006KT 21/16 A2985 RMK A01 T02050164  RH  077%=      5-min Rain = 0
KMC4 241151Z 09005KT 21/17 A2985 RMK A01 T02050165  RH  077%=      5-min Rain = 0
KMC4 241152Z 12006KT 21/17 A2986 RMK A01 T02050165  RH  078%=      5-min Rain = 0
KMC4 241153Z 12006KT 21/17 A2986 RMK A01 T02050165  RH  078%=      5-min Rain = 0
KMC4 241154Z 12005KT 21/17 A2986 RMK A01 T02050165  RH  078%=      5-min Rain = 0
KMC4 241155Z 11006KT 21/17 A2986 RMK A01 T02050165  RH  078%=      5-min Rain = 0
KMC4 241156Z 11006KT 20/17 A2985 RMK A01 T02040165  RH  078%=      5-min Rain = 0
KMC4 241157Z 12008KT 20/17 A2985 RMK A01 T02040165  RH  078%=      5-min Rain = 0
KMC4 241158Z 11009KT 20/17 A2985 RMK A01 T02040165  RH  079%=      5-min Rain = 0
KMC4 241159Z 12008KT 20/17 A2985 RMK A01 T02040166  RH  079%=      5-min Rain = 0
KMC4 241200Z 13007KT 20/17 A2985 RMK A01 T02040166  RH  079%=      5-min Rain = 0
KMC4 241201Z 13007KT 20/17 A2985 RMK A01 T02040166  RH  079%=      5-min Rain = 0
KMC4 241202Z 13009KT 20/17 A2985 RMK A01 T02030166  RH  079%=      5-min Rain = 0
KMC4 241203Z 14010KT 20/17 A2985 RMK A01 T02030167  RH  080%=      5-min Rain = 0
KMC4 241204Z 14008KT 20/17 A2985 RMK A01 T02030167  RH  080%=      5-min Rain = 0
KMC4 241205Z 14007KT 20/17 A2985 RMK A01 T02030168  RH  080%=      5-min Rain = 0
KMC4 241206Z 14012KT 20/17 A2985 RMK A01 T02030168  RH  081%=      5-min Rain = 0
KMC4 241207Z 14009KT 20/17 A2985 RMK A01 T02030169  RH  081%=      5-min Rain = 0
KMC4 241208Z 14010KT 20/17 A2985 RMK A01 T02030169  RH  081%=      5-min Rain = 0
KMC4 241209Z 14010KT 20/17 A2985 RMK A01 T02040171  RH  081%=      5-min Rain = 0
KMC4 241210Z 15010KT 20/17 A2985 RMK A01 T02040171  RH  081%=      5-min Rain = 0
KMC4 241211Z 15011KT 20/17 A2985 RMK A01 T02040171  RH  082%=      5-min Rain = 0
KMC4 241212Z 15011KT 20/17 A2985 RMK A01 T02040172  RH  082%=      5-min Rain = 0
KMC4 241213Z 14010KT 21/17 A2985 RMK A01 T02050173  RH  082%=      5-min Rain = 0
KMC4 241214Z 15010KT 21/17 A2985 RMK A01 T02050173  RH  082%=      5-min Rain = 0
KMC4 241215Z 14010KT 21/17 A2985 RMK A01 T02050173  RH  082%=      5-min Rain = 0
KMC4 241216Z 15009KT 21/17 A2985 RMK A01 T02050173  RH  082%=      5-min Rain = 0
KMC4 241217Z 14010KT 21/17 A2985 RMK A01 T02050174  RH  082%=      5-min Rain = 0
KMC4 241218Z 15010KT 21/17 A2985 RMK A01 T02050174  RH  082%=      5-min Rain = 0
KMC4 241219Z 14008KT 21/18 A2985 RMK A01 T02060175  RH  082%=      5-min Rain = 0
KMC4 241220Z 14008KT 21/18 A2985 RMK A01 T02060175  RH  082%=      5-min Rain = 0
KMC4 241221Z 14009KT 21/18 A2985 RMK A01 T02060175  RH  082%=      5-min Rain = 0
KMC4 241222Z 14009KT 21/18 A2985 RMK A01 T02060175  RH  083%=      5-min Rain = 0
KMC4 241223Z 14007KT 21/18 A2985 RMK A01 T02060176  RH  083%=      5-min Rain = 0
KMC4 241224Z 14005KT 21/18 A2985 RMK A01 T02060175  RH  082%=      5-min Rain = 0
KMC4 241225Z 13004KT 21/18 A2985 RMK A01 T02070176  RH  082%=      5-min Rain = 0
KMC4 241226Z 12005KT 21/18 A2985 RMK A01 T02070176  RH  082%=      5-min Rain = 0
KMC4 241227Z 12006KT 21/18 A2985 RMK A01 T02070176  RH  082%=      5-min Rain = 0
KMC4 241228Z 12006KT 21/18 A2985 RMK A01 T02070177  RH  082%=      5-min Rain = 0
KMC4 241229Z 13007KT 21/18 A2985 RMK A01 T02080177  RH  082%=      5-min Rain = 0
KMC4 241230Z 12006KT 21/18 A2985 RMK A01 T02080177  RH  082%=      5-min Rain = 0
KMC4 241231Z 10004KT 21/18 A2985 RMK A01 T02090177  RH  082%=      5-min Rain = 0
KMC4 241232Z 11005KT 21/18 A2985 RMK A01 T02080177  RH  082%=      5-min Rain = 0
KMC4 241233Z 13006KT 21/18 A2986 RMK A01 T02090177  RH  082%=      5-min Rain = 0
KMC4 241234Z 13004KT 21/18 A2986 RMK A01 T02100178  RH  082%=      5-min Rain = 0
KMC4 241235Z 13006KT 21/18 A2986 RMK A01 T02100178  RH  082%=      5-min Rain = 0
KMC4 241236Z 13006KT 21/18 A2986 RMK A01 T02110178  RH  082%=      5-min Rain = 0
KMC4 241237Z 12006KT 21/18 A2985 RMK A01 T02120179  RH  081%=      5-min Rain = 0
KMC4 241238Z 13006KT 21/18 A2985 RMK A01 T02130179  RH  081%=      5-min Rain = 0
KMC4 241239Z 14006KT 21/18 A2986 RMK A01 T02130179  RH  081%=      5-min Rain = 0
KMC4 241240Z 12006KT 21/18 A2986 RMK A01 T02140179  RH  081%=      5-min Rain = 0
KMC4 241241Z 14007KT 21/18 A2986 RMK A01 T02140179  RH  081%=      5-min Rain = 0
KMC4 241242Z 14009KT 21/18 A2985 RMK A01 T02140179  RH  081%=      5-min Rain = 0
KMC4 241243Z 14009KT 22/18 A2985 RMK A01 T02150180  RH  081%=      5-min Rain = 0
KMC4 241244Z 14006KT 22/18 A2985 RMK A01 T02150180  RH  080%=      5-min Rain = 0
KMC4 241245Z 14006KT 22/18 A2985 RMK A01 T02150180  RH  080%=      5-min Rain = 0
KMC4 241246Z 14006KT 22/18 A2986 RMK A01 T02160180  RH  080%=      5-min Rain = 0
KMC4 241247Z 15007KT 22/18 A2986 RMK A01 T02160181  RH  080%=      5-min Rain = 0
KMC4 241248Z 15009KT 22/18 A2986 RMK A01 T02160180  RH  080%=      5-min Rain = 0
KMC4 241249Z 15007KT 22/18 A2986 RMK A01 T02160181  RH  080%=      5-min Rain = 0
KMC4 241250Z 15008KT 22/18 A2986 RMK A01 T02160181  RH  080%=      5-min Rain = 0
KMC4 241251Z 14009KT 22/18 A2986 RMK A01 T02170181  RH  080%=      5-min Rain = 0
KMC4 241252Z 15010KT 22/18 A2986 RMK A01 T02160181  RH  080%=      5-min Rain = 0
KMC4 241253Z 15009KT 22/18 A2986 RMK A01 T02160181  RH  080%=      5-min Rain = 0
KMC4 241254Z 16007KT 22/18 A2986 RMK A01 T02170182  RH  080%=      5-min Rain = 0
KMC4 241255Z 14009KT 22/18 A2986 RMK A01 T02170182  RH  080%=      5-min Rain = 0
KMC4 241256Z 15009KT 22/18 A2986 RMK A01 T02170182  RH  080%=      5-min Rain = 0
KMC4 241257Z 16008KT 22/18 A2986 RMK A01 T02170182  RH  080%=      5-min Rain = 0
KMC4 241258Z 15008KT 22/18 A2986 RMK A01 T02180182  RH  080%=      5-min Rain = 0
KMC4 241259Z 16006KT 22/18 A2986 RMK A01 T02180182  RH  080%=      5-min Rain = 0
KMC4 241300Z 15006KT 22/18 A2986 RMK A01 T02180183  RH  080%=      5-min Rain = 0
KMC4 241301Z 15007KT 22/18 A2986 RMK A01 T02190183  RH  080%=      5-min Rain = 0
KMC4 241302Z 15008KT 22/18 A2986 RMK A01 T02190183  RH  080%=      5-min Rain = 0
KMC4 241303Z 15007KT 22/18 A2986 RMK A01 T02200183  RH  080%=      5-min Rain = 0
KMC4 241304Z 15007KT 22/18 A2986 RMK A01 T02200183  RH  079%=      5-min Rain = 0
KMC4 241305Z 15008KT 22/18 A2986 RMK A01 T02200183  RH  079%=      5-min Rain = 0
KMC4 241306Z 15008KT 22/18 A2986 RMK A01 T02210183  RH  079%=      5-min Rain = 0
KMC4 241307Z 15006KT 22/18 A2986 RMK A01 T02210184  RH  079%=      5-min Rain = 0
KMC4 241308Z 15006KT 22/18 A2986 RMK A01 T02210184  RH  079%=      5-min Rain = 0
KMC4 241309Z 14007KT 22/18 A2986 RMK A01 T02200183  RH  079%=      5-min Rain = 0
KMC4 241310Z 16008KT 22/18 A2986 RMK A01 T02210184  RH  079%=      5-min Rain = 0
KMC4 241311Z 15008KT 22/18 A2986 RMK A01 T02220184  RH  079%=      5-min Rain = 0
KMC4 241312Z 15010G15KT 22/18 A2986 RMK A01 T02220184  RH  079%=      5-min Rain = 0
KMC4 241313Z 16012KT 22/19 A2986 RMK A01 T02220185  RH  079%=      5-min Rain = 0
KMC4 241314Z 15010KT 22/19 A2986 RMK A01 T02220185  RH  079%=      5-min Rain = 0
KMC4 241315Z 15010KT 22/19 A2986 RMK A01 T02220185  RH  079%=      5-min Rain = 0
KMC4 241316Z 15011KT 22/19 A2986 RMK A01 T02220185  RH  080%=      5-min Rain = 0
KMC4 241317Z 16012KT 22/19 A2986 RMK A01 T02220185  RH  080%=      5-min Rain = 0
KMC4 241318Z 16012KT 22/19 A2986 RMK A01 T02220185  RH  080%=      5-min Rain = 0
KMC4 241319Z 16011KT 22/19 A2986 RMK A01 T02230186  RH  079%=      5-min Rain = 0
KMC4 241320Z 16010KT 22/19 A2986 RMK A01 T02230186  RH  079%=      5-min Rain = 0
KMC4 241321Z 16008KT 22/19 A2986 RMK A01 T02230186  RH  079%=      5-min Rain = 0
KMC4 241322Z 15009KT 22/19 A2986 RMK A01 T02240186  RH  079%=      5-min Rain = 0
KMC4 241323Z 16012KT 22/19 A2986 RMK A01 T02240186  RH  079%=      5-min Rain = 0
KMC4 241324Z 16013KT 23/19 A2986 RMK A01 T02250187  RH  079%=      5-min Rain = 0
KMC4 241325Z 15012KT 23/19 A2986 RMK A01 T02250187  RH  079%=      5-min Rain = 0
KMC4 241326Z 16010KT 22/19 A2986 RMK A01 T02240187  RH  079%=      5-min Rain = 0
KMC4 241327Z 16011KT 22/19 A2986 RMK A01 T02240187  RH  079%=      5-min Rain = 0
KMC4 241328Z 15010KT 22/19 A2986 RMK A01 T02240187  RH  079%=      5-min Rain = 0
KMC4 241329Z 15011KT 22/19 A2986 RMK A01 T02240187  RH  079%=      5-min Rain = 0
KMC4 241330Z 15010KT 22/19 A2985 RMK A01 T02230187  RH  080%=      5-min Rain = 0
KMC4 241331Z 15010KT 22/19 A2985 RMK A01 T02230187  RH  080%=      5-min Rain = 0
KMC4 241332Z 15012KT 22/19 A2985 RMK A01 T02240187  RH  080%=      5-min Rain = 0
KMC4 241333Z 14012KT 22/19 A2985 RMK A01 T02240186  RH  079%=      5-min Rain = 0
KMC4 241334Z 15013KT 23/19 A2985 RMK A01 T02250187  RH  079%=      5-min Rain = 0
KMC4 241335Z 14012KT 23/19 A2985 RMK A01 T02270187  RH  078%=      5-min Rain = 0
KMC4 241336Z 14012KT 23/19 A2985 RMK A01 T02280188  RH  078%=      5-min Rain = 0
KMC4 241337Z 15012KT 23/19 A2985 RMK A01 T02290187  RH  077%=      5-min Rain = 0
KMC4 241338Z 15009KT 23/19 A2985 RMK A01 T02290187  RH  077%=      5-min Rain = 0
KMC4 241339Z 14011KT 23/19 A2985 RMK A01 T02290188  RH  077%=      5-min Rain = 0
KMC4 241340Z 14011KT 23/19 A2985 RMK A01 T02300187  RH  077%=      5-min Rain = 0
KMC4 241341Z 16010KT 23/19 A2985 RMK A01 T02310188  RH  077%=      5-min Rain = 0
KMC4 241342Z 14008KT 23/19 A2985 RMK A01 T02320189  RH  077%=      5-min Rain = 0
KMC4 241343Z 13010G15KT 23/19 A2985 RMK A01 T02340189  RH  076%=      5-min Rain = 0
KMC4 241344Z 13014KT 23/19 A2985 RMK A01 T02340188  RH  075%=      5-min Rain = 0
KMC4 241345Z 14013KT 23/19 A2986 RMK A01 T02340188  RH  076%=      5-min Rain = 0
KMC4 241346Z 14014KT 23/19 A2986 RMK A01 T02330188  RH  076%=      5-min Rain = 0
KMC4 241347Z 14010KT 23/19 A2986 RMK A01 T02330188  RH  076%=      5-min Rain = 0
KMC4 241348Z 14011KT 23/19 A2986 RMK A01 T02320188  RH  076%=      5-min Rain = 0
KMC4 241349Z 15010KT 23/19 A2986 RMK A01 T02320188  RH  076%=      5-min Rain = 0
KMC4 241350Z 13014KT 23/19 A2986 RMK A01 T02320187  RH  076%=      5-min Rain = 0
KMC4 241351Z 14014KT 23/19 A2986 RMK A01 T02320187  RH  076%=      5-min Rain = 0
KMC4 241352Z 14010KT 23/19 A2986 RMK A01 T02330187  RH  076%=      5-min Rain = 0
KMC4 241353Z 14010KT 23/19 A2986 RMK A01 T02330188  RH  076%=      5-min Rain = 0
KMC4 241354Z 13013KT 23/19 A2986 RMK A01 T02340188  RH  075%=      5-min Rain = 0
KMC4 241355Z 13011KT 23/19 A2986 RMK A01 T02340188  RH  075%=      5-min Rain = 0
KMC4 241356Z 13011KT 23/19 A2986 RMK A01 T02330188  RH  076%=      5-min Rain = 0
KMC4 241357Z 14010KT 23/19 A2986 RMK A01 T02330188  RH  076%=      5-min Rain = 0
KMC4 241358Z 15011KT 23/19 A2986 RMK A01 T02330188  RH  076%=      5-min Rain = 0
KMC4 241359Z 15010KT 23/19 A2986 RMK A01 T02330188  RH  076%=      5-min Rain = 0
KMC4 241400Z 14010KT 23/19 A2986 RMK A01 T02320187  RH  076%=      5-min Rain = 0
KMC4 241401Z 16008KT 23/19 A2986 RMK A01 T02330188  RH  076%=      5-min Rain = 0
KMC4 241402Z 15011KT 24/19 A2986 RMK A01 T02360189  RH  075%=      5-min Rain = 0
KMC4 241403Z 15013KT 24/19 A2986 RMK A01 T02360188  RH  075%=      5-min Rain = 0
KMC4 241404Z 15013KT 24/19 A2985 RMK A01 T02350188  RH  075%=      5-min Rain = 0
KMC4 241405Z 16011KT 24/19 A2985 RMK A01 T02350188  RH  075%=      5-min Rain = 0
KMC4 241406Z 16010KT 24/19 A2985 RMK A01 T02360189  RH  075%=      5-min Rain = 0
KMC4 241407Z 14013KT 24/19 A2985 RMK A01 T02390189  RH  074%=      5-min Rain = 0
KMC4 241408Z 14015KT 24/19 A2985 RMK A01 T02400189  RH  073%=      5-min Rain = 0
KMC4 241409Z 14014KT 24/19 A2985 RMK A01 T02400188  RH  073%=      5-min Rain = 0
KMC4 241410Z 14014KT 24/19 A2985 RMK A01 T02380188  RH  074%=      5-min Rain = 0
KMC4 241411Z 14012KT 24/19 A2985 RMK A01 T02380188  RH  074%=      5-min Rain = 0
KMC4 241412Z 16010KT 24/19 A2985 RMK A01 T02380188  RH  074%=      5-min Rain = 0
KMC4 241413Z 17012KT 24/19 A2985 RMK A01 T02370188  RH  074%=      5-min Rain = 0
KMC4 241414Z 15012KT 24/19 A2985 RMK A01 T02360188  RH  074%=      5-min Rain = 0
KMC4 241415Z 14013KT 24/19 A2985 RMK A01 T02360188  RH  074%=      5-min Rain = 0
KMC4 241416Z 14014KT 24/19 A2985 RMK A01 T02370188  RH  074%=      5-min Rain = 0
KMC4 241417Z 14013KT 24/19 A2985 RMK A01 T02370188  RH  074%=      5-min Rain = 0
KMC4 241418Z 16012KT 24/19 A2985 RMK A01 T02370188  RH  074%=      5-min Rain = 0
KMC4 241419Z 14012KT 24/19 A2985 RMK A01 T02370189  RH  074%=      5-min Rain = 0
KMC4 241420Z 14015KT 24/19 A2985 RMK A01 T02370188  RH  074%=      5-min Rain = 0
KMC4 241421Z 15015KT 24/19 A2985 RMK A01 T02380188  RH  074%=      5-min Rain = 0
KMC4 241422Z 15011KT 24/19 A2985 RMK A01 T02380188  RH  074%=      5-min Rain = 0
KMC4 241423Z 14012KT 24/19 A2985 RMK A01 T02370188  RH  074%=      5-min Rain = 0
KMC4 241424Z 14012KT 24/19 A2985 RMK A01 T02370189  RH  074%=      5-min Rain = 0
KMC4 241425Z 13014KT 24/19 A2985 RMK A01 T02380188  RH  074%=      5-min Rain = 0
KMC4 241426Z 14012KT 24/19 A2985 RMK A01 T02380189  RH  074%=      5-min Rain = 0
KMC4 241427Z 16008KT 24/19 A2985 RMK A01 T02410190  RH  073%=      5-min Rain = 0
KMC4 241428Z 17011KT 24/19 A2985 RMK A01 T02430189  RH  072%=      5-min Rain = 0
KMC4 241429Z 17008KT 24/19 A2985 RMK A01 T02430188  RH  072%=      5-min Rain = 0
KMC4 241430Z 15008KT 24/19 A2985 RMK A01 T02420189  RH  072%=      5-min Rain = 0
KMC4 241431Z 15010KT 24/19 A2985 RMK A01 T02440190  RH  072%=      5-min Rain = 0
KMC4 241432Z 14013KT 24/19 A2985 RMK A01 T02440189  RH  071%=      5-min Rain = 0
KMC4 241433Z 15012KT 24/19 A2985 RMK A01 T02440189  RH  072%=      5-min Rain = 0
KMC4 241434Z 17008KT 25/19 A2985 RMK A01 T02450189  RH  071%=      5-min Rain = 0
KMC4 241435Z 15011KT 25/19 A2985 RMK A01 T02470190  RH  070%=      5-min Rain = 0
KMC4 241436Z 14012KT 25/19 A2985 RMK A01 T02480190  RH  070%=      5-min Rain = 0
KMC4 241437Z 14012KT 25/19 A2985 RMK A01 T02470189  RH  070%=      5-min Rain = 0
KMC4 241438Z 15013KT 25/19 A2985 RMK A01 T02460189  RH  071%=      5-min Rain = 0
KMC4 241439Z 15012KT 25/19 A2985 RMK A01 T02450189  RH  071%=      5-min Rain = 0
KMC4 241440Z 16012KT 24/19 A2985 RMK A01 T02440189  RH  071%=      5-min Rain = 0
KMC4 241441Z 17010KT 24/19 A2985 RMK A01 T02430189  RH  072%=      5-min Rain = 0
KMC4 241442Z 15010KT 24/19 A2985 RMK A01 T02410189  RH  073%=      5-min Rain = 0
KMC4 241443Z 14013KT 24/19 A2986 RMK A01 T02420189  RH  072%=      5-min Rain = 0
KMC4 241444Z 16012KT 24/19 A2986 RMK A01 T02430189  RH  072%=      5-min Rain = 0
KMC4 241445Z 15013KT 25/19 A2986 RMK A01 T02460191  RH  071%=      5-min Rain = 0
KMC4 241446Z 14014KT 25/19 A2985 RMK A01 T02470189  RH  070%=      5-min Rain = 0
KMC4 241447Z 14012KT 25/19 A2986 RMK A01 T02470190  RH  071%=      5-min Rain = 0
KMC4 241448Z 15013KT 25/19 A2985 RMK A01 T02470190  RH  071%=      5-min Rain = 0
KMC4 241449Z 15014KT 25/19 A2985 RMK A01 T02470191  RH  071%=      5-min Rain = 0
KMC4 241450Z 16014KT 25/19 A2985 RMK A01 T02490189  RH  069%=      5-min Rain = 0
KMC4 241451Z 17012KT 25/19 A2985 RMK A01 T02490189  RH  069%=      5-min Rain = 0
KMC4 241452Z 17011KT 25/19 A2985 RMK A01 T02480189  RH  070%=      5-min Rain = 0
KMC4 241453Z 16014KT 25/19 A2985 RMK A01 T02470189  RH  070%=      5-min Rain = 0
KMC4 241454Z 15012KT 25/19 A2985 RMK A01 T02480189  RH  070%=      5-min Rain = 0
KMC4 241455Z 17013KT 25/19 A2985 RMK A01 T02480189  RH  070%=      5-min Rain = 0
KMC4 241456Z 17011KT 25/19 A2985 RMK A01 T02470189  RH  070%=      5-min Rain = 0
KMC4 241457Z 17011KT 25/19 A2985 RMK A01 T02480190  RH  070%=      5-min Rain = 0
KMC4 241458Z 17010KT 25/19 A2985 RMK A01 T02480189  RH  069%=      5-min Rain = 0
KMC4 241459Z 16013KT 25/19 A2985 RMK A01 T02490189  RH  069%=      5-min Rain = 0
KMC4 241500Z 15014KT 25/19 A2985 RMK A01 T02500188  RH  068%=      5-min Rain = 0
KMC4 241501Z 15014KT 25/19 A2985 RMK A01 T02490188  RH  069%=      5-min Rain = 0
KMC4 241502Z 15017KT 25/19 A2985 RMK A01 T02500188  RH  068%=      5-min Rain = 0
KMC4 241503Z 16015KT 25/19 A2985 RMK A01 T02510188  RH  068%=      5-min Rain = 0
KMC4 241504Z 16012KT 25/19 A2985 RMK A01 T02510190  RH  069%=      5-min Rain = 0
KMC4 241505Z 17013KT 25/19 A2985 RMK A01 T02500189  RH  069%=      5-min Rain = 0
KMC4 241506Z 17013KT 25/19 A2985 RMK A01 T02500189  RH  069%=      5-min Rain = 0
KMC4 241507Z 16011KT 25/19 A2985 RMK A01 T02520188  RH  068%=      5-min Rain = 0
KMC4 241508Z 16014KT 25/19 A2985 RMK A01 T02530188  RH  067%=      5-min Rain = 0
KMC4 241509Z 17013KT 25/19 A2985 RMK A01 T02520188  RH  067%=      5-min Rain = 0
KMC4 241510Z 18012KT 25/19 A2985 RMK A01 T02520189  RH  068%=      5-min Rain = 0
KMC4 241511Z 16011KT 25/19 A2985 RMK A01 T02520189  RH  068%=      5-min Rain = 0
KMC4 241512Z 16015KT 25/19 A2985 RMK A01 T02540190  RH  068%=      5-min Rain = 0
KMC4 241513Z 16014KT 26/19 A2985 RMK A01 T02560189  RH  067%=      5-min Rain = 0
KMC4 241514Z 18013KT 26/19 A2985 RMK A01 T02560189  RH  066%=      5-min Rain = 0
KMC4 241515Z 17013KT 26/19 A2985 RMK A01 T02550189  RH  067%=      5-min Rain = 0
KMC4 241516Z 17013KT 26/19 A2985 RMK A01 T02560189  RH  067%=      5-min Rain = 0
KMC4 241517Z 18011KT 26/19 A2985 RMK A01 T02550188  RH  066%=      5-min Rain = 0
KMC4 241518Z 16012KT 26/19 A2985 RMK A01 T02550188  RH  067%=      5-min Rain = 0
KMC4 241519Z 16012KT 26/19 A2985 RMK A01 T02550187  RH  066%=      5-min Rain = 0
KMC4 241520Z 16013KT 26/19 A2985 RMK A01 T02560187  RH  066%=      5-min Rain = 0
KMC4 241521Z 17015KT 26/19 A2985 RMK A01 T02550187  RH  066%=      5-min Rain = 0
KMC4 241522Z 17014KT 26/19 A2985 RMK A01 T02550187  RH  066%=      5-min Rain = 0
KMC4 241523Z 16015KT 25/19 A2985 RMK A01 T02540186  RH  066%=      5-min Rain = 0
KMC4 241524Z 16011KT 25/19 A2985 RMK A01 T02540187  RH  067%=      5-min Rain = 0
KMC4 241525Z 16012KT 25/19 A2985 RMK A01 T02540187  RH  067%=      5-min Rain = 0
KMC4 241526Z 14011KT 25/19 A2985 RMK A01 T02540188  RH  066%=      5-min Rain = 0
KMC4 241527Z 16012KT 26/19 A2985 RMK A01 T02570188  RH  066%=      5-min Rain = 0
KMC4 241528Z 16011KT 26/19 A2985 RMK A01 T02580188  RH  065%=      5-min Rain = 0
KMC4 241529Z 16011KT 26/19 A2985 RMK A01 T02580189  RH  065%=      5-min Rain = 0
KMC4 241530Z 15010G15KT 26/19 A2985 RMK A01 T02570188  RH  065%=      5-min Rain = 0
KMC4 241531Z 17013KT 26/19 A2985 RMK A01 T02570188  RH  066%=      5-min Rain = 0
KMC4 241532Z 17015KT 26/19 A2985 RMK A01 T02570187  RH  065%=      5-min Rain = 0
KMC4 241533Z 18013KT 26/19 A2985 RMK A01 T02570187  RH  065%=      5-min Rain = 0
KMC4 241534Z 18011KT 26/19 A2985 RMK A01 T02560187  RH  066%=      5-min Rain = 0
KMC4 241535Z 17008KT 26/19 A2985 RMK A01 T02580187  RH  065%=      5-min Rain = 0
KMC4 241536Z 16013KT 26/19 A2985 RMK A01 T02600188  RH  064%=      5-min Rain = 0
KMC4 241537Z 16013KT 26/19 A2985 RMK A01 T02610187  RH  064%=      5-min Rain = 0
KMC4 241538Z 17011KT 26/19 A2985 RMK A01 T02620185  RH  063%=      5-min Rain = 0
KMC4 241539Z 18013KT 26/19 A2985 RMK A01 T02620185  RH  063%=      5-min Rain = 0
KMC4 241540Z 17010G15KT 26/19 A2985 RMK A01 T02630186  RH  063%=      5-min Rain = 0
KMC4 241541Z 17011KT 27/19 A2985 RMK A01 T02660185  RH  061%=      5-min Rain = 0
KMC4 241542Z 18011KT 27/19 A2985 RMK A01 T02660185  RH  061%=      5-min Rain = 0
KMC4 241543Z 17009KT 27/19 A2985 RMK A01 T02650186  RH  062%=      5-min Rain = 0
KMC4 241544Z 15011KT 27/19 A2985 RMK A01 T02660187  RH  062%=      5-min Rain = 0
KMC4 241545Z 16011KT 27/19 A2985 RMK A01 T02660187  RH  062%=      5-min Rain = 0
KMC4 241546Z 16015KT 27/19 A2985 RMK A01 T02670186  RH  061%=      5-min Rain = 0
KMC4 241547Z 17011KT 27/18 A2985 RMK A01 T02680184  RH  060%=      5-min Rain = 0
KMC4 241548Z 18012KT 27/19 A2985 RMK A01 T02680186  RH  061%=      5-min Rain = 0
KMC4 241549Z 18012KT 27/18 A2984 RMK A01 T02670184  RH  060%=      5-min Rain = 0
KMC4 241550Z 18010KT 27/19 A2985 RMK A01 T02660185  RH  061%=      5-min Rain = 0
KMC4 241551Z 18009KT 27/19 A2984 RMK A01 T02680185  RH  060%=      5-min Rain = 0
KMC4 241552Z 17013KT 27/19 A2985 RMK A01 T02690186  RH  060%=      5-min Rain = 0
KMC4 241553Z 17011KT 27/19 A2985 RMK A01 T02690186  RH  060%=      5-min Rain = 0
KMC4 241554Z 18012KT 27/19 A2985 RMK A01 T02670187  RH  061%=      5-min Rain = 0
KMC4 241555Z 15014KT 27/19 A2985 RMK A01 T02680187  RH  061%=      5-min Rain = 0
KMC4 241556Z 15009KT 27/19 A2984 RMK A01 T02680187  RH  061%=      5-min Rain = 0
KMC4 241557Z 15011G16KT 27/19 A2984 RMK A01 T02680187  RH  061%=      5-min Rain = 0
KMC4 241558Z 17009KT 27/19 A2984 RMK A01 T02720189  RH  060%=      5-min Rain = 0
KMC4 241559Z 18013G18KT 28/19 A2984 RMK A01 T02750186  RH  059%=      5-min Rain = 0
KMC4 241600Z 16010KT 27/18 A2984 RMK A01 T02740184  RH  058%=      5-min Rain = 0
KMC4 241601Z 17013KT 28/18 A2984 RMK A01 T02750183  RH  057%=      5-min Rain = 0
KMC4 241602Z 18014KT 28/18 A2984 RMK A01 T02760180  RH  056%=      5-min Rain = 0
KMC4 241603Z 18014KT 27/18 A2984 RMK A01 T02740178  RH  056%=      5-min Rain = 0
KMC4 241604Z 17011KT 27/18 A2984 RMK A01 T02720178  RH  056%=      5-min Rain = 0
KMC4 241605Z 17011KT 27/18 A2984 RMK A01 T02720181  RH  057%=      5-min Rain = 0
KMC4 241606Z 17009KT 27/18 A2984 RMK A01 T02720180  RH  057%=      5-min Rain = 0
KMC4 241607Z 17009KT 27/18 A2984 RMK A01 T02710183  RH  058%=      5-min Rain = 0
KMC4 241608Z 18010KT 27/19 A2984 RMK A01 T02730186  RH  059%=      5-min Rain = 0
KMC4 241609Z 18013KT 28/19 A2984 RMK A01 T02770185  RH  057%=      5-min Rain = 0
KMC4 241610Z 17010KT 27/18 A2984 RMK A01 T02740181  RH  057%=      5-min Rain = 0
KMC4 241611Z 15010G15KT 27/18 A2984 RMK A01 T02730184  RH  058%=      5-min Rain = 0
KMC4 241612Z 16015KT 27/18 A2984 RMK A01 T02730184  RH  058%=      5-min Rain = 0
KMC4 241613Z 16016KT 28/18 A2984 RMK A01 T02750184  RH  058%=      5-min Rain = 0
KMC4 241614Z 16014KT 28/18 A2984 RMK A01 T02750184  RH  057%=      5-min Rain = 0
KMC4 241615Z 16013KT 28/18 A2984 RMK A01 T02760182  RH  057%=      5-min Rain = 0
KMC4 241616Z 15014KT 28/18 A2983 RMK A01 T02750183  RH  057%=      5-min Rain = 0
KMC4 241617Z 16013KT 28/19 A2983 RMK A01 T02750185  RH  058%=      5-min Rain = 0
KMC4 241618Z 16012KT 28/19 A2983 RMK A01 T02750187  RH  059%=      5-min Rain = 0
KMC4 241619Z 13011KT 28/19 A2983 RMK A01 T02770186  RH  058%=      5-min Rain = 0
KMC4 241620Z 14012KT 28/18 A2983 RMK A01 T02780184  RH  056%=      5-min Rain = 0
KMC4 241621Z 17010KT 28/19 A2983 RMK A01 T02790185  RH  057%=      5-min Rain = 0
KMC4 241622Z 17011KT 28/19 A2983 RMK A01 T02820187  RH  056%=      5-min Rain = 0
KMC4 241623Z 16008KT 28/19 A2983 RMK A01 T02800185  RH  056%=      5-min Rain = 0
KMC4 241624Z 14010KT 28/18 A2983 RMK A01 T02770184  RH  057%=      5-min Rain = 0
KMC4 241625Z 15009KT 28/18 A2983 RMK A01 T02790180  RH  055%=      5-min Rain = 0
KMC4 241626Z 15013KT 28/18 A2983 RMK A01 T02790183  RH  056%=      5-min Rain = 0
KMC4 241627Z 14014KT 28/18 A2983 RMK A01 T02800183  RH  056%=      5-min Rain = 0
KMC4 241628Z 15011KT 28/18 A2983 RMK A01 T02800183  RH  055%=      5-min Rain = 0
KMC4 241629Z 14016KT 28/18 A2983 RMK A01 T02810184  RH  056%=      5-min Rain = 0
KMC4 241630Z 15012G17KT 28/18 A2983 RMK A01 T02820184  RH  055%=      5-min Rain = 0
KMC4 241631Z 14013KT 28/18 A2983 RMK A01 T02830184  RH  055%=      5-min Rain = 0
KMC4 241632Z 15011KT 28/18 A2983 RMK A01 T02830183  RH  055%=      5-min Rain = 0
KMC4 241633Z 17011KT 28/18 A2983 RMK A01 T02830184  RH  055%=      5-min Rain = 0
KMC4 241634Z 18011KT 28/18 A2983 RMK A01 T02820183  RH  055%=      5-min Rain = 0
KMC4 241635Z 19011KT 28/18 A2983 RMK A01 T02820183  RH  055%=      5-min Rain = 0
KMC4 241636Z 19014KT 28/18 A2983 RMK A01 T02810179  RH  054%=      5-min Rain = 0
KMC4 241637Z 19013KT 28/17 A2983 RMK A01 T02830173  RH  051%=      5-min Rain = 0
KMC4 241638Z 19008KT 28/17 A2983 RMK A01 T02830171  RH  051%=      5-min Rain = 0
KMC4 241639Z 17009KT 28/17 A2983 RMK A01 T02830170  RH  050%=      5-min Rain = 0
KMC4 241640Z 18009KT 28/17 A2983 RMK A01 T02840173  RH  051%=      5-min Rain = 0
KMC4 241641Z 18013KT 29/18 A2983 RMK A01 T02850180  RH  053%=      5-min Rain = 0
KMC4 241642Z 17010KT 29/18 A2983 RMK A01 T02850180  RH  053%=      5-min Rain = 0
KMC4 241643Z 17011KT 28/18 A2983 RMK A01 T02830181  RH  054%=      5-min Rain = 0
KMC4 241644Z 19014KT 29/17 A2983 RMK A01 T02860173  RH  051%=      5-min Rain = 0
KMC4 241645Z 19010KT 29/17 A2983 RMK A01 T02860172  RH  050%=      5-min Rain = 0
KMC4 241646Z 18010KT 28/18 A2983 RMK A01 T02830178  RH  053%=      5-min Rain = 0
KMC4 241647Z 17011KT 28/18 A2983 RMK A01 T02830181  RH  054%=      5-min Rain = 0
KMC4 241648Z 16012KT 28/18 A2983 RMK A01 T02830182  RH  054%=      5-min Rain = 0
KMC4 241649Z 16013KT 28/18 A2983 RMK A01 T02840176  RH  052%=      5-min Rain = 0
KMC4 241650Z 18010KT 29/17 A2983 RMK A01 T02880167  RH  048%=      5-min Rain = 0
KMC4 241651Z 19009KT 29/17 A2983 RMK A01 T02900167  RH  047%=      5-min Rain = 0
KMC4 241652Z 16012KT 29/18 A2983 RMK A01 T02900178  RH  051%=      5-min Rain = 0
KMC4 241653Z 17014KT 29/18 A2983 RMK A01 T02890180  RH  052%=      5-min Rain = 0
KMC4 241654Z 15011KT 29/18 A2983 RMK A01 T02890179  RH  052%=      5-min Rain = 0
KMC4 241655Z 20009KT 29/18 A2983 RMK A01 T02890178  RH  051%=      5-min Rain = 0
KMC4 241656Z 19011KT 29/17 A2983 RMK A01 T02910173  RH  049%=      5-min Rain = 0
KMC4 241657Z 18011KT 29/17 A2983 RMK A01 T02910172  RH  049%=      5-min Rain = 0
KMC4 241658Z 17011KT 29/17 A2983 RMK A01 T02920173  RH  049%=      5-min Rain = 0
KMC4 241659Z 18011KT 29/17 A2983 RMK A01 T02920173  RH  049%=      5-min Rain = 0
KMC4 241700Z 18007KT 29/17 A2983 RMK A01 T02910170  RH  048%=      5-min Rain = 0
KMC4 241701Z 18009KT 29/17 A2983 RMK A01 T02900172  RH  049%=      5-min Rain = 0
KMC4 241702Z 16011KT 29/18 A2983 RMK A01 T02940175  RH  049%=      5-min Rain = 0
KMC4 241703Z 18012KT 30/17 A2983 RMK A01 T02950172  RH  048%=      5-min Rain = 0
KMC4 241704Z 20013KT 30/17 A2983 RMK A01 T02960169  RH  046%=      5-min Rain = 0
KMC4 241705Z 20012KT 30/17 A2983 RMK A01 T02960167  RH  046%=      5-min Rain = 0
KMC4 241706Z 20010KT 29/17 A2983 RMK A01 T02930165  RH  046%=      5-min Rain = 0
KMC4 241707Z 18010KT 29/16 A2983 RMK A01 T02930162  RH  045%=      5-min Rain = 0
KMC4 241708Z 21009KT 29/16 A2983 RMK A01 T02930159  RH  044%=      5-min Rain = 0
KMC4 241709Z 19007KT 29/16 A2983 RMK A01 T02940161  RH  045%=      5-min Rain = 0
KMC4 241710Z 18008KT 29/17 A2983 RMK A01 T02940166  RH  046%=      5-min Rain = 0
KMC4 241711Z 19011G17KT 30/17 A2983 RMK A01 T02970169  RH  046%=      5-min Rain = 0
KMC4 241712Z 18011KT 30/17 A2983 RMK A01 T02990165  RH  044%=      5-min Rain = 0
KMC4 241713Z 18010KT 30/16 A2983 RMK A01 T02990162  RH  043%=      5-min Rain = 0
KMC4 241714Z 16008KT 30/16 A2983 RMK A01 T02980160  RH  043%=      5-min Rain = 0
KMC4 241715Z 15011KT 30/16 A2983 RMK A01 T02980158  RH  043%=      5-min Rain = 0
KMC4 241716Z 16011KT 30/17 A2982 RMK A01 T02980165  RH  045%=      5-min Rain = 0
KMC4 241717Z 17010KT 30/17 A2982 RMK A01 T02990167  RH  045%=      5-min Rain = 0
KMC4 241718Z 17006KT 30/17 A2982 RMK A01 T02990165  RH  045%=      5-min Rain = 0
KMC4 241719Z 18008KT 30/17 A2982 RMK A01 T02980167  RH  045%=      5-min Rain = 0
KMC4 241720Z 21010KT 30/16 A2982 RMK A01 T03000162  RH  043%=      5-min Rain = 0
KMC4 241721Z 21011KT 30/16 A2982 RMK A01 T03000158  RH  042%=      5-min Rain = 0
KMC4 241722Z 19007KT 30/16 A2982 RMK A01 T02980164  RH  044%=      5-min Rain = 0
KMC4 241723Z 17007KT 30/17 A2982 RMK A01 T02980166  RH  045%=      5-min Rain = 0
KMC4 241724Z 18010KT 30/16 A2982 RMK A01 T03000164  RH  044%=      5-min Rain = 0
KMC4 241725Z 19009KT 30/16 A2982 RMK A01 T03020158  RH  042%=      5-min Rain = 0
KMC4 241726Z 19006KT 31/16 A2982 RMK A01 T03050156  RH  040%=      5-min Rain = 0
KMC4 241727Z 17006KT 31/15 A2982 RMK A01 T03090152  RH  039%=      5-min Rain = 0
KMC4 241728Z 16008KT 31/15 A2982 RMK A01 T03090153  RH  039%=      5-min Rain = 0
KMC4 241729Z 18006KT 31/16 A2982 RMK A01 T03060156  RH  040%=      5-min Rain = 0
KMC4 241730Z 19009KT 31/16 A2982 RMK A01 T03050157  RH  041%=      5-min Rain = 0
KMC4 241731Z 20012KT 31/16 A2982 RMK A01 T03050159  RH  041%=      5-min Rain = 0
KMC4 241732Z 19012KT 31/16 A2982 RMK A01 T03050161  RH  042%=      5-min Rain = 0
KMC4 241733Z 18010G15KT 30/16 A2982 RMK A01 T03030157  RH  041%=      5-min Rain = 0
KMC4 241734Z 17007KT 30/16 A2982 RMK A01 T03010156  RH  041%=      5-min Rain = 0
KMC4 241735Z 17009KT 30/16 A2982 RMK A01 T03000155  RH  041%=      5-min Rain = 0
KMC4 241736Z 18007KT 30/15 A2982 RMK A01 T03000153  RH  041%=      5-min Rain = 0
KMC4 241737Z 15009G14KT 30/15 A2982 RMK A01 T03000154  RH  041%=      5-min Rain = 0
KMC4 241738Z 17012KT 30/16 A2982 RMK A01 T03020157  RH  041%=      5-min Rain = 0
KMC4 241739Z 18012KT 31/16 A2982 RMK A01 T03080155  RH  040%=      5-min Rain = 0
KMC4 241740Z 20009KT 31/15 A2982 RMK A01 T03090149  RH  038%=      5-min Rain = 0
KMC4 241741Z 19009KT 31/15 A2982 RMK A01 T03070149  RH  038%=      5-min Rain = 0
KMC4 241742Z 17011G16KT 31/15 A2982 RMK A01 T03060153  RH  040%=      5-min Rain = 0
KMC4 241743Z 18013KT 31/16 A2982 RMK A01 T03060158  RH  041%=      5-min Rain = 0
KMC4 241744Z 17012KT 31/16 A2982 RMK A01 T03050157  RH  041%=      5-min Rain = 0
KMC4 241745Z 19009KT 31/16 A2982 RMK A01 T03050157  RH  041%=      5-min Rain = 0
KMC4 241746Z 19009G14KT 30/16 A2982 RMK A01 T03040157  RH  041%=      5-min Rain = 0
KMC4 241747Z 18012KT 31/16 A2982 RMK A01 T03060155  RH  040%=      5-min Rain = 0
KMC4 241748Z 17010KT 31/15 A2982 RMK A01 T03080153  RH  039%=      5-min Rain = 0
KMC4 241749Z 17012KT 31/15 A2982 RMK A01 T03080154  RH  039%=      5-min Rain = 0
KMC4 241750Z 19010KT 31/15 A2982 RMK A01 T03090152  RH  039%=      5-min Rain = 0
KMC4 241751Z 17008KT 31/15 A2982 RMK A01 T03080153  RH  039%=      5-min Rain = 0
KMC4 241752Z 16009KT 31/15 A2982 RMK A01 T03100152  RH  038%=      5-min Rain = 0
KMC4 241753Z 18008KT 31/15 A2982 RMK A01 T03100154  RH  039%=      5-min Rain = 0
KMC4 241754Z 16011G16KT 31/16 A2982 RMK A01 T03080156  RH  040%=      5-min Rain = 0
KMC4 241755Z 16012KT 31/16 A2982 RMK A01 T03090160  RH  041%=      5-min Rain = 0
KMC4 241756Z 16008KT 31/16 A2982 RMK A01 T03120161  RH  040%=      5-min Rain = 0
KMC4 241757Z 15008KT 31/16 A2982 RMK A01 T03120162  RH  041%=      5-min Rain = 0
KMC4 241758Z 14011KT 32/16 A2982 RMK A01 T03150164  RH  040%=      5-min Rain = 0
KMC4 241759Z 15012KT 32/16 A2981 RMK A01 T03150162  RH  040%=      5-min Rain = 0
KMC4 241800Z 14010KT 31/16 A2981 RMK A01 T03140160  RH  040%=      5-min Rain = 0
KMC4 241801Z 18012KT 31/16 A2981 RMK A01 T03140157  RH  039%=      5-min Rain = 0
KMC4 241802Z 18012KT 31/15 A2981 RMK A01 T03140152  RH  037%=      5-min Rain = 0
KMC4 241803Z 19009KT 31/15 A2981 RMK A01 T03130147  RH  037%=      5-min Rain = 0
KMC4 241804Z 18010KT 31/15 A2981 RMK A01 T03100150  RH  038%=      5-min Rain = 0
KMC4 241805Z 20011KT 31/15 A2981 RMK A01 T03120151  RH  038%=      5-min Rain = 0
KMC4 241806Z 19012KT 32/15 A2981 RMK A01 T03150148  RH  036%=      5-min Rain = 0
KMC4 241807Z 18007KT 32/15 A2981 RMK A01 T03150146  RH  036%=      5-min Rain = 0
KMC4 241808Z 16006KT 31/15 A2981 RMK A01 T03130146  RH  036%=      5-min Rain = 0
KMC4 241809Z 16008KT 31/15 A2981 RMK A01 T03130149  RH  037%=      5-min Rain = 0
KMC4 241810Z 16011KT 31/15 A2981 RMK A01 T03140149  RH  037%=      5-min Rain = 0
KMC4 241811Z 14013KT 31/16 A2981 RMK A01 T03140155  RH  038%=      5-min Rain = 0
KMC4 241812Z 13012KT 32/16 A2981 RMK A01 T03170156  RH  038%=      5-min Rain = 0
KMC4 241813Z 14010KT 32/16 A2981 RMK A01 T03170155  RH  038%=      5-min Rain = 0
KMC4 241814Z 16013KT 32/16 A2981 RMK A01 T03160156  RH  038%=      5-min Rain = 0
KMC4 241815Z 16012KT 32/16 A2981 RMK A01 T03180156  RH  038%=      5-min Rain = 0
KMC4 241816Z 17012KT 32/15 A2981 RMK A01 T03180145  RH  035%=      5-min Rain = 0
KMC4 241817Z 18010KT 32/15 A2981 RMK A01 T03160145  RH  035%=      5-min Rain = 0
KMC4 241818Z 18011KT 32/15 A2981 RMK A01 T03150148  RH  036%=      5-min Rain = 0
KMC4 241819Z 17011KT 32/15 A2981 RMK A01 T03150147  RH  036%=      5-min Rain = 0
KMC4 241820Z 17010KT 32/15 A2981 RMK A01 T03160146  RH  036%=      5-min Rain = 0
KMC4 241821Z 17011KT 31/15 A2981 RMK A01 T03140150  RH  037%=      5-min Rain = 0
KMC4 241822Z 16010G15KT 32/15 A2981 RMK A01 T03150154  RH  038%=      5-min Rain = 0
KMC4 241823Z 16010KT 32/16 A2981 RMK A01 T03150155  RH  038%=      5-min Rain = 0
KMC4 241824Z 16014KT 32/15 A2981 RMK A01 T03150154  RH  038%=      5-min Rain = 0
KMC4 241825Z 15011KT 32/15 A2981 RMK A01 T03150149  RH  037%=      5-min Rain = 0
KMC4 241826Z 19009G16KT 32/15 A298 RMK A01 T03150149  RH  037%=      5-min Rain = 0
KMC4 241827Z 20011KT 32/15 A298 RMK A01 T03160151  RH  037%=      5-min Rain = 0
KMC4 241828Z 20010KT 32/15 A298 RMK A01 T03200151  RH  036%=      5-min Rain = 0
KMC4 241829Z 19009KT 32/15 A298 RMK A01 T03200152  RH  036%=      5-min Rain = 0
KMC4 241830Z 17009KT 32/14 A298 RMK A01 T03220144  RH  034%=      5-min Rain = 0
KMC4 241831Z 16010KT 32/15 A298 RMK A01 T03200147  RH  035%=      5-min Rain = 0
KMC4 241832Z 16007KT 32/15 A298 RMK A01 T03180147  RH  035%=      5-min Rain = 0
KMC4 241833Z 18006KT 32/15 A298 RMK A01 T03160146  RH  036%=      5-min Rain = 0
KMC4 241834Z 17007KT 32/15 A298 RMK A01 T03150148  RH  036%=      5-min Rain = 0
KMC4 241835Z 16012KT 32/15 A298 RMK A01 T03180148  RH  036%=      5-min Rain = 0
KMC4 241836Z 17009KT 32/14 A298 RMK A01 T03210144  RH  034%=      5-min Rain = 0
KMC4 241837Z 17010KT 32/14 A298 RMK A01 T03200140  RH  034%=      5-min Rain = 0
KMC4 241838Z 16011KT 32/14 A298 RMK A01 T03210140  RH  033%=      5-min Rain = 0
KMC4 241839Z 16013G18KT 32/14 A298 RMK A01 T03200140  RH  034%=      5-min Rain = 0
KMC4 241840Z 15014KT 32/14 A298 RMK A01 T03190144  RH  035%=      5-min Rain = 0
KMC4 241841Z 14012KT 32/15 A298 RMK A01 T03200146  RH  035%=      5-min Rain = 0
KMC4 241842Z 13011KT 32/15 A298 RMK A01 T03190145  RH  035%=      5-min Rain = 0
KMC4 241843Z 15011KT 32/14 A298 RMK A01 T03220144  RH  034%=      5-min Rain = 0
KMC4 241844Z 16012KT 32/14 A298 RMK A01 T03210144  RH  034%=      5-min Rain = 0
KMC4 241845Z 18009KT 32/15 A298 RMK A01 T03210145  RH  034%=      5-min Rain = 0
KMC4 241846Z 19008G14KT 32/14 A298 RMK A01 T03220143  RH  034%=      5-min Rain = 0
KMC4 241847Z 17009KT 32/14 A2979 RMK A01 T03210143  RH  034%=      5-min Rain = 0
KMC4 241848Z 17010KT 32/14 A2979 RMK A01 T03210143  RH  034%=      5-min Rain = 0
KMC4 241849Z 20010G15KT 32/14 A2979 RMK A01 T03190144  RH  035%=      5-min Rain = 0
KMC4 241850Z 20012KT 32/14 A2979 RMK A01 T03190143  RH  034%=      5-min Rain = 0
KMC4 241851Z 18008KT 32/15 A2979 RMK A01 T03180145  RH  035%=      5-min Rain = 0
KMC4 241852Z 16007KT 32/14 A2979 RMK A01 T03190144  RH  035%=      5-min Rain = 0
KMC4 241853Z 15007KT 32/14 A2979 RMK A01 T03190141  RH  034%=      5-min Rain = 0
KMC4 241854Z 18009KT 32/14 A2979 RMK A01 T03200141  RH  034%=      5-min Rain = 0
KMC4 241855Z 18009KT 32/14 A2979 RMK A01 T03220143  RH  034%=      5-min Rain = 0
KMC4 241856Z 17008KT 32/14 A2978 RMK A01 T03220144  RH  034%=      5-min Rain = 0
KMC4 241857Z 17009KT 32/15 A2978 RMK A01 T03200145  RH  035%=      5-min Rain = 0
KMC4 241858Z 20009KT 32/14 A2978 RMK A01 T03210144  RH  034%=      5-min Rain = 0
KMC4 241859Z 20010KT 32/14 A2978 RMK A01 T03220143  RH  034%=      5-min Rain = 0
KMC4 241900Z 18006KT 32/14 A2978 RMK A01 T03230143  RH  034%=      5-min Rain = 0
KMC4 241901Z 17012KT 32/14 A2978 RMK A01 T03240141  RH  033%=      5-min Rain = 0
KMC4 241902Z 18009G14KT 32/14 A2978 RMK A01 T03240138  RH  032%=      5-min Rain = 0
KMC4 241903Z 18004KT 32/13 A2978 RMK A01 T03230131  RH  031%=      5-min Rain = 0
KMC4 241904Z 15006KT 32/13 A2978 RMK A01 T03240131  RH  031%=      5-min Rain = 0
KMC4 241905Z 18007KT 32/14 A2977 RMK A01 T03240138  RH  032%=      5-min Rain = 0
KMC4 241906Z 21006KT 32/14 A2977 RMK A01 T03240137  RH  032%=      5-min Rain = 0
KMC4 241907Z 23009KT 32/14 A2977 RMK A01 T03230136  RH  032%=      5-min Rain = 0
KMC4 241908Z 18012KT 33/14 A2977 RMK A01 T03250138  RH  032%=      5-min Rain = 0
KMC4 241909Z 17011KT 33/14 A2977 RMK A01 T03250143  RH  033%=      5-min Rain = 0
KMC4 241910Z 18008KT 33/14 A2977 RMK A01 T03250143  RH  033%=      5-min Rain = 0
KMC4 241911Z 20005KT 32/14 A2977 RMK A01 T03240141  RH  033%=      5-min Rain = 0
KMC4 241912Z 19007KT 32/14 A2977 RMK A01 T03220140  RH  033%=      5-min Rain = 0
KMC4 241913Z 19007KT 32/14 A2977 RMK A01 T03210137  RH  033%=      5-min Rain = 0
KMC4 241914Z 20008KT 32/13 A2977 RMK A01 T03210134  RH  032%=      5-min Rain = 0
KMC4 241915Z 21009KT 32/13 A2977 RMK A01 T03210130  RH  031%=      5-min Rain = 0
KMC4 241916Z 22007KT 32/13 A2977 RMK A01 T03190126  RH  031%=      5-min Rain = 0
KMC4 241917Z 20005KT 32/13 A2977 RMK A01 T03160125  RH  031%=      5-min Rain = 0
KMC4 241918Z 19010KT 31/13 A2977 RMK A01 T03140129  RH  032%=      5-min Rain = 0
KMC4 241919Z 21008KT 31/13 A2977 RMK A01 T03140129  RH  032%=      5-min Rain = 0
KMC4 241920Z 18009KT 31/13 A2977 RMK A01 T03140128  RH  032%=      5-min Rain = 0
KMC4 241921Z 17008KT 31/13 A2977 RMK A01 T03140126  RH  032%=      5-min Rain = 0
KMC4 241922Z 17009KT 31/13 A2977 RMK A01 T03140125  RH  032%=      5-min Rain = 0
KMC4 241923Z 18011KT 31/13 A2977 RMK A01 T03140125  RH  031%=      5-min Rain = 0
KMC4 241924Z 18008KT 32/12 A2977 RMK A01 T03150123  RH  031%=      5-min Rain = 0
KMC4 241925Z 19007KT 32/12 A2977 RMK A01 T03150121  RH  031%=      5-min Rain = 0
KMC4 241926Z 18007KT 31/12 A2977 RMK A01 T03140122  RH  031%=      5-min Rain = 0
KMC4 241927Z 18007KT 31/13 A2977 RMK A01 T03130125  RH  032%=      5-min Rain = 0
KMC4 241928Z 20006KT 31/13 A2977 RMK A01 T03140127  RH  032%=      5-min Rain = 0
KMC4 241929Z 14008KT 32/13 A2977 RMK A01 T03150129  RH  032%=      5-min Rain = 0
KMC4 241930Z 17008KT 32/13 A2977 RMK A01 T03160132  RH  033%=      5-min Rain = 0
KMC4 241931Z 17008KT 32/13 A2977 RMK A01 T03150133  RH  033%=      5-min Rain = 0
KMC4 241932Z 16009KT 32/13 A2977 RMK A01 T03150134  RH  033%=      5-min Rain = 0
KMC4 241933Z 16012KT 32/13 A2977 RMK A01 T03150134  RH  033%=      5-min Rain = 0
KMC4 241934Z 17009KT 32/13 A2977 RMK A01 T03150132  RH  033%=      5-min Rain = 0
KMC4 241935Z 18012KT 31/13 A2976 RMK A01 T03140133  RH  033%=      5-min Rain = 0
KMC4 241936Z 18010KT 31/13 A2976 RMK A01 T03140134  RH  033%=      5-min Rain = 0
KMC4 241937Z 14011KT 31/13 A2976 RMK A01 T03130134  RH  034%=      5-min Rain = 0
KMC4 241938Z 15011KT 31/13 A2976 RMK A01 T03120132  RH  033%=      5-min Rain = 0
KMC4 241939Z 16009KT 31/13 A2976 RMK A01 T03120132  RH  033%=      5-min Rain = 0
KMC4 241940Z 17009KT 31/13 A2976 RMK A01 T03120134  RH  034%=      5-min Rain = 0
KMC4 241941Z 16011KT 31/14 A2976 RMK A01 T03130137  RH  034%=      5-min Rain = 0
KMC4 241942Z 16011KT 31/14 A2976 RMK A01 T03120139  RH  035%=      5-min Rain = 0
KMC4 241943Z 18008KT 31/14 A2976 RMK A01 T03100140  RH  035%=      5-min Rain = 0
KMC4 241944Z 19010KT 31/14 A2976 RMK A01 T03110139  RH  035%=      5-min Rain = 0
KMC4 241945Z 16010KT 31/14 A2976 RMK A01 T03110136  RH  035%=      5-min Rain = 0
KMC4 241946Z 15010KT 31/13 A2976 RMK A01 T03110132  RH  034%=      5-min Rain = 0
KMC4 241947Z 16010KT 31/13 A2976 RMK A01 T03110131  RH  033%=      5-min Rain = 0
KMC4 241948Z 17009G14KT 31/13 A2976 RMK A01 T03110132  RH  033%=      5-min Rain = 0
KMC4 241949Z 18010KT 31/14 A2976 RMK A01 T03120135  RH  034%=      5-min Rain = 0
KMC4 241950Z 17012KT 31/14 A2976 RMK A01 T03120137  RH  034%=      5-min Rain = 0
KMC4 241951Z 16011KT 31/14 A2976 RMK A01 T03110136  RH  034%=      5-min Rain = 0
KMC4 241952Z 16010KT 31/14 A2976 RMK A01 T03100137  RH  035%=      5-min Rain = 0
KMC4 241953Z 16012KT 31/14 A2976 RMK A01 T03110137  RH  035%=      5-min Rain = 0
KMC4 241954Z 17009KT 31/14 A2976 RMK A01 T03110136  RH  034%=      5-min Rain = 0
KMC4 241955Z 17009KT 31/14 A2976 RMK A01 T03100136  RH  035%=      5-min Rain = 0
KMC4 241956Z 18009KT 31/14 A2975 RMK A01 T03090137  RH  035%=      5-min Rain = 0
KMC4 241957Z 17010KT 31/14 A2975 RMK A01 T03090138  RH  035%=      5-min Rain = 0
KMC4 241958Z 17009KT 31/14 A2975 RMK A01 T03090137  RH  035%=      5-min Rain = 0
KMC4 241959Z 17010KT 31/14 A2975 RMK A01 T03090137  RH  035%=      5-min Rain = 0
KMC4 242000Z 18008KT 31/14 A2975 RMK A01 T03090137  RH  035%=      5-min Rain = 0
KMC4 242001Z 17009KT 31/14 A2975 RMK A01 T03100137  RH  035%=      5-min Rain = 0
KMC4 242002Z 17008KT 31/14 A2975 RMK A01 T03100136  RH  035%=      5-min Rain = 0
KMC4 242003Z 15008KT 31/14 A2975 RMK A01 T03090136  RH  035%=      5-min Rain = 0
KMC4 242004Z 15009KT 31/14 A2975 RMK A01 T03090135  RH  034%=      5-min Rain = 0
KMC4 242005Z 17011KT 31/14 A2975 RMK A01 T03090136  RH  035%=      5-min Rain = 0
KMC4 242006Z 17009KT 31/14 A2975 RMK A01 T03080136  RH  035%=      5-min Rain = 0
KMC4 242007Z 16009KT 31/13 A2975 RMK A01 T03070134  RH  035%=      5-min Rain = 0
KMC4 242008Z 15008KT 31/13 A2975 RMK A01 T03060131  RH  034%=      5-min Rain = 0
KMC4 242009Z 16010KT 31/13 A2975 RMK A01 T03050132  RH  035%=      5-min Rain = 0
KMC4 242010Z 16008KT 31/13 A2975 RMK A01 T03050133  RH  035%=      5-min Rain = 0
KMC4 242011Z 15009KT 31/13 A2975 RMK A01 T03050134  RH  035%=      5-min Rain = 0
KMC4 242012Z 14008KT 31/13 A2974 RMK A01 T03050133  RH  035%=      5-min Rain = 0
KMC4 242013Z 13009KT 31/13 A2974 RMK A01 T03050133  RH  035%=      5-min Rain = 0
KMC4 242014Z 13008KT 31/13 A2974 RMK A01 T03050132  RH  035%=      5-min Rain = 0
KMC4 242015Z 13007KT 31/13 A2974 RMK A01 T03050132  RH  035%=      5-min Rain = 0
KMC4 242016Z 12006KT 30/13 A2973 RMK A01 T03040131  RH  035%=      5-min Rain = 0
KMC4 242017Z 13005KT 30/13 A2973 RMK A01 T03040131  RH  035%=      5-min Rain = 0
KMC4 242018Z 13007KT 31/13 A2973 RMK A01 T03050132  RH  035%=      5-min Rain = 0
KMC4 242019Z 16008KT 30/13 A2973 RMK A01 T03040133  RH  035%=      5-min Rain = 0
KMC4 242020Z 18007KT 30/14 A2973 RMK A01 T03040135  RH  036%=      5-min Rain = 0
KMC4 242021Z 17008KT 30/14 A2974 RMK A01 T03020139  RH  037%=      5-min Rain = 0
KMC4 242022Z 17012KT 30/14 A2974 RMK A01 T03010142  RH  038%=      5-min Rain = 0
KMC4 242023Z 17012KT 30/15 A2974 RMK A01 T03000149  RH  040%=      5-min Rain = 0
KMC4 242024Z 17011KT 30/15 A2974 RMK A01 T02980151  RH  041%=      5-min Rain = 0
KMC4 242025Z 17011KT 30/15 A2974 RMK A01 T02970152  RH  041%=      5-min Rain = 0
KMC4 242026Z 16010KT 30/15 A2974 RMK A01 T02970152  RH  041%=      5-min Rain = 0
KMC4 242027Z 16011KT 30/15 A2975 RMK A01 T02960152  RH  041%=      5-min Rain = 0
KMC4 242028Z 17010KT 30/15 A2975 RMK A01 T02960152  RH  042%=      5-min Rain = 0
KMC4 242029Z 17007KT 30/15 A2975 RMK A01 T02960152  RH  042%=      5-min Rain = 0
KMC4 242030Z 17007KT 30/15 A2975 RMK A01 T02960153  RH  042%=      5-min Rain = 0
KMC4 242031Z 18009KT 30/15 A2975 RMK A01 T02950152  RH  042%=      5-min Rain = 0
KMC4 242032Z 17008KT 30/15 A2975 RMK A01 T02950152  RH  042%=      5-min Rain = 0
KMC4 242033Z 18008KT 29/15 A2975 RMK A01 T02940152  RH  042%=      5-min Rain = 0
KMC4 242034Z 18009KT 29/15 A2976 RMK A01 T02940152  RH  042%=      5-min Rain = 0
KMC4 242035Z 16010KT 29/15 A2976 RMK A01 T02940152  RH  042%=      5-min Rain = 0
KMC4 242036Z 17008KT 29/15 A2976 RMK A01 T02940152  RH  042%=      5-min Rain = 0
KMC4 242037Z 17008KT 29/15 A2976 RMK A01 T02940152  RH  042%=      5-min Rain = 0
KMC4 242038Z 17009KT 29/15 A2975 RMK A01 T02940152  RH  042%=      5-min Rain = 0
KMC4 242039Z 17008KT 29/15 A2975 RMK A01 T02940153  RH  042%=      5-min Rain = 0
KMC4 242040Z 16009KT 29/15 A2975 RMK A01 T02930153  RH  042%=      5-min Rain = 0
KMC4 242041Z 16007KT 29/15 A2975 RMK A01 T02930153  RH  042%=      5-min Rain = 0
KMC4 242042Z 15008KT 29/15 A2974 RMK A01 T02930153  RH  043%=      5-min Rain = 0
KMC4 242043Z 16009KT 29/15 A2974 RMK A01 T02930153  RH  043%=      5-min Rain = 0
KMC4 242044Z 14007KT 29/15 A2974 RMK A01 T02930153  RH  043%=      5-min Rain = 0
KMC4 242045Z 14009KT 29/15 A2974 RMK A01 T02930154  RH  043%=      5-min Rain = 0
KMC4 242046Z 14008KT 29/16 A2974 RMK A01 T02930155  RH  043%=      5-min Rain = 0
KMC4 242047Z 14009KT 29/16 A2974 RMK A01 T02930156  RH  043%=      5-min Rain = 0
KMC4 242048Z 15008KT 29/16 A2975 RMK A01 T02930156  RH  044%=      5-min Rain = 0
KMC4 242049Z 15010KT 29/16 A2975 RMK A01 T02930157  RH  044%=      5-min Rain = 0
KMC4 242050Z 16008KT 29/16 A2976 RMK A01 T02930159  RH  044%=      5-min Rain = 0
KMC4 242051Z 15008KT 29/16 A2976 RMK A01 T02930160  RH  045%=      5-min Rain = 0
KMC4 242052Z 16007KT 29/16 A2976 RMK A01 T02930160  RH  045%=      5-min Rain = 0
KMC4 242053Z 17007KT 29/16 A2977 RMK A01 T02930160  RH  045%=      5-min Rain = 0
KMC4 242054Z 17007KT 29/16 A2977 RMK A01 T02930161  RH  045%=      5-min Rain = 0
KMC4 242055Z 18006KT 29/16 A2977 RMK A01 T02920161  RH  045%=      5-min Rain = 0
KMC4 242056Z 19005KT 29/16 A2977 RMK A01 T02920162  RH  045%=      5-min Rain = 0
KMC4 242057Z 20006KT 29/16 A2978 RMK A01 T02920162  RH  045%=      5-min Rain = 0
KMC4 242058Z 19005KT 29/16 A2978 RMK A01 T02920163  RH  046%=      5-min Rain = 0
KMC4 242059Z 19005KT 29/16 A2978 RMK A01 T02920163  RH  046%=      5-min Rain = 0
KMC4 242100Z 19006KT 29/16 A2978 RMK A01 T02910163  RH  046%=      5-min Rain = 0
KMC4 242101Z 18007KT 29/17 A2978 RMK A01 T02910169  RH  048%=      5-min Rain = 0
KMC4 242102Z 13005KT 29/18 A2977 RMK A01 T02870176  RH  051%=      5-min Rain = 0
KMC4 242103Z 10012KT 28/18 A2976 RMK A01 T02810182  RH  055%=      5-min Rain = 0
KMC4 242104Z 10014G20KT 27/18 A2974 RMK A01 T02730179  RH  056%=      5-min Rain = 0
KMC4 242105Z 11015KT 27/18 A2973 RMK A01 T02670182  RH  060%=      5-min Rain = 0
KMC4 242106Z 10016KT 26/16 A2973 RMK A01 T02620159  RH  053%=      5-min Rain = 0
KMC4 242107Z 10015KT 26/14 A2972 RMK A01 T02600141  RH  048%=      5-min Rain = 0
KMC4 242108Z 10019KT 26/14 A2971 RMK A01 T02560141  RH  049%=      5-min Rain = 0
KMC4 242109Z 09015KT 26/14 A2971 RMK A01 T02550135  RH  047%=      5-min Rain = 0
KMC4 242110Z 09014KT 26/11 A297 RMK A01 T02550113  RH  041%=      5-min Rain = 0
KMC4 242111Z 11012KT 26/10 A297 RMK A01 T02550102  RH  038%=      5-min Rain = 0
KMC4 242112Z 13010KT 26/10 A297 RMK A01 T02570104  RH  038%=      5-min Rain = 0
KMC4 242113Z 11012G17KT 26/09 A2971 RMK A01 T02580090  RH  035%=      5-min Rain = 0
KMC4 242114Z 09011G24KT 26/09 A2971 RMK A01 T02600093  RH  035%=      5-min Rain = 0
KMC4 242115Z 09013KT 26/09 A2971 RMK A01 T02600092  RH  035%=      5-min Rain = 0
KMC4 242116Z 10011KT 26/09 A2972 RMK A01 T02620089  RH  033%=      5-min Rain = 0
KMC4 242117Z 10012KT 26/11 A2972 RMK A01 T02600106  RH  038%=      5-min Rain = 0
KMC4 242118Z 10012KT 26/10 A2972 RMK A01 T02550104  RH  039%=      5-min Rain = 0
KMC4 242119Z 11012KT 26/10 A2972 RMK A01 T02550095  RH  036%=      5-min Rain = 0
KMC4 242120Z 12009KT 26/11 A2972 RMK A01 T02580105  RH  038%=      5-min Rain = 0
KMC4 242121Z 13007KT 26/12 A2973 RMK A01 T02560118  RH  042%=      5-min Rain = 0
KMC4 242122Z 14008KT 25/12 A2973 RMK A01 T02520117  RH  043%=      5-min Rain = 0
KMC4 242123Z 16008KT 25/13 A2973 RMK A01 T02500126  RH  046%=      5-min Rain = 0
KMC4 242124Z 17009KT 25/13 A2973 RMK A01 T02460130  RH  048%=      5-min Rain = 0
KMC4 242125Z 16011KT 24/13 A2973 RMK A01 T02420128  RH  049%=      5-min Rain = 0
KMC4 242126Z 18010KT 24/13 A2973 RMK A01 T02410127  RH  049%=      5-min Rain = 0
KMC4 242127Z 18009KT 24/12 A2973 RMK A01 T02410122  RH  047%=      5-min Rain = 0
KMC4 242128Z 19011KT 24/13 A2973 RMK A01 T02420130  RH  050%=      5-min Rain = 0
KMC4 242129Z 19010KT 24/14 A2972 RMK A01 T02410138  RH  052%=      5-min Rain = 0
KMC4 242130Z 19011KT 24/14 A2972 RMK A01 T02390138  RH  053%=      5-min Rain = 0
KMC4 242131Z 18011KT 24/14 A2972 RMK A01 T02380138  RH  053%=      5-min Rain = 0
KMC4 242132Z 17010KT 24/13 A2972 RMK A01 T02390133  RH  051%=      5-min Rain = 0
KMC4 242133Z 17010KT 24/13 A2972 RMK A01 T02390130  RH  050%=      5-min Rain = 0
KMC4 242134Z 17010KT 24/13 A2972 RMK A01 T02400130  RH  050%=      5-min Rain = 0
KMC4 242135Z 16010KT 24/13 A2973 RMK A01 T02400132  RH  051%=      5-min Rain = 0
KMC4 242136Z 19010KT 24/13 A2974 RMK A01 T02400130  RH  050%=      5-min Rain = 0
KMC4 242137Z 20012KT 24/14 A2975 RMK A01 T02390141  RH  054%=      5-min Rain = 0
KMC4 242138Z 21011KT 24/15 A2976 RMK A01 T02360147  RH  057%=      5-min Rain = 0
KMC4 242139Z 22012KT 24/15 A2976 RMK A01 T02350150  RH  059%=      5-min Rain = 0
KMC4 242140Z 21012KT 23/15 A2976 RMK A01 T02340146  RH  057%=      5-min Rain = 0
KMC4 242141Z 19014KT 24/14 A2976 RMK A01 T02350136  RH  054%=      5-min Rain = 0
KMC4 242142Z 18012KT 24/13 A2976 RMK A01 T02390129  RH  050%=      5-min Rain = 0
KMC4 242143Z 17019G24KT 24/12 A2975 RMK A01 T02410118  RH  046%=      5-min Rain = 0
KMC4 242144Z 16018KT 25/11 A2974 RMK A01 T02480110  RH  042%=      5-min Rain = 0
KMC4 242145Z 15030KT 25/11 A2973 RMK A01 T02510112  RH  042%=      5-min Rain = 0
KMC4 242146Z 14026KT 25/11 A2974 RMK A01 T02540106  RH  039%=      5-min Rain = 0
KMC4 242147Z 13021KT 26/11 A2974 RMK A01 T02570109  RH  039%=      5-min Rain = 0
KMC4 242148Z 13023KT 26/11 A2974 RMK A01 T02570111  RH  040%=      5-min Rain = 0
KMC4 242149Z 13021KT 26/09 A2974 RMK A01 T02580094  RH  036%=      5-min Rain = 0
KMC4 242150Z 12020KT 26/09 A2974 RMK A01 T02630093  RH  034%=      5-min Rain = 0
KMC4 242151Z 11017G22KT 27/09 A2974 RMK A01 T02660088  RH  032%=      5-min Rain = 0
KMC4 242152Z 11014KT 27/08 A2975 RMK A01 T02700079  RH  030%=      5-min Rain = 0
KMC4 242153Z 14010KT 27/07 A2975 RMK A01 T02740070  RH  027%=      5-min Rain = 0
KMC4 242154Z 13008G15KT 28/06 A2975 RMK A01 T02770059  RH  025%=      5-min Rain = 0
KMC4 242155Z 07006KT 28/07 A2974 RMK A01 T02790070  RH  027%=      5-min Rain = 0
KMC4 242156Z 04013KT 28/09 A2973 RMK A01 T02770092  RH  031%=      5-min Rain = 0
KMC4 242157Z 04014KT 27/09 A2973 RMK A01 T02730091  RH  032%=      5-min Rain = 0
KMC4 242158Z 04015KT 27/10 A2973 RMK A01 T02690099  RH  034%=      5-min Rain = 0
KMC4 242159Z 05015KT 27/11 A2973 RMK A01 T02650108  RH  037%=      5-min Rain = 0
KMC4 242200Z 05014KT 26/11 A2973 RMK A01 T02620107  RH  038%=      5-min Rain = 0
KMC4 242201Z 06010G15KT 26/11 A2973 RMK A01 T02610105  RH  037%=      5-min Rain = 0
KMC4 242202Z 08007KT 26/10 A2973 RMK A01 T02610098  RH  036%=      5-min Rain = 0
KMC4 242203Z 06013G22KT 26/09 A2973 RMK A01 T02620091  RH  034%=      5-min Rain = 0
KMC4 242204Z 05017G23KT 27/06 A2972 RMK A01 T02690062  RH  027%=      5-min Rain = 0
KMC4 242205Z 03022G40KT 28/04 A2971 RMK A01 T02800041  RH  022%=      5-min Rain = 0
KMC4 242206Z 10006KT 29/03 A2972 RMK A01 T02910030  RH  019%=      5-min Rain = 0
KMC4 242207Z 29005KT 30/03 A2971 RMK A01 T02950027  RH  018%=      5-min Rain = 0
KMC4 242208Z 33003KT 30/02 A2971 RMK A01 T02980023  RH  017%=      5-min Rain = 0
KMC4 242209Z 07007KT 30/03 A2971 RMK A01 T02990029  RH  018%=      5-min Rain = 0
KMC4 242210Z 04009G14KT 30/05 A2971 RMK A01 T02980045  RH  020%=      5-min Rain = 0
KMC4 242211Z 05012KT 29/07 A2971 RMK A01 T02930067  RH  024%=      5-min Rain = 0
KMC4 242212Z 06010KT 29/07 A2971 RMK A01 T02860070  RH  026%=      5-min Rain = 0
KMC4 242213Z 03011KT 28/07 A2971 RMK A01 T02820072  RH  027%=      5-min Rain = 0
KMC4 242214Z 02010G20KT 28/06 A297 RMK A01 T02800060  RH  025%=      5-min Rain = 0
KMC4 242215Z 03015G21KT 28/04 A2969 RMK A01 T02830035  RH  020%=      5-min Rain = 0
KMC4 242216Z 03018KT 29/03 A2969 RMK A01 T02900029  RH  019%=      5-min Rain = 0
KMC4 242217Z 03012G19KT 30/02 A2969 RMK A01 T02970018  RH  017%=      5-min Rain = 0
KMC4 242218Z 05014KT 30/05 A2969 RMK A01 T02990047  RH  020%=      5-min Rain = 0
KMC4 242219Z 05012KT 29/06 A2969 RMK A01 T02920062  RH  023%=      5-min Rain = 0
KMC4 242220Z 06011KT 29/06 A2969 RMK A01 T02850064  RH  025%=      5-min Rain = 0
KMC4 242221Z 04012KT 28/06 A2968 RMK A01 T02820059  RH  024%=      5-min Rain = 0
KMC4 242222Z 03012KT 28/04 A2968 RMK A01 T02830041  RH  021%=      5-min Rain = 0
KMC4 242223Z 03013KT 29/05 A2968 RMK A01 T02860046  RH  022%=      5-min Rain = 0
KMC4 242224Z 02014KT 29/04 A2968 RMK A01 T02880038  RH  020%=      5-min Rain = 0
KMC4 242225Z 03012KT 29/05 A2968 RMK A01 T02890045  RH  021%=      5-min Rain = 0
KMC4 242226Z 04017KT 29/04 A2967 RMK A01 T02900036  RH  020%=      5-min Rain = 0
KMC4 242227Z 03017KT 29/03 A2967 RMK A01 T02930030  RH  019%=      5-min Rain = 0
KMC4 242228Z 03014G20KT 30/03 A2967 RMK A01 T02960028  RH  018%=      5-min Rain = 0
KMC4 242229Z 04015G21KT 30/04 A2967 RMK A01 T02970042  RH  020%=      5-min Rain = 0
KMC4 242230Z 02020KT 29/04 A2967 RMK A01 T02920043  RH  020%=      5-min Rain = 0
KMC4 242231Z 02018KT 29/04 A2966 RMK A01 T02900043  RH  021%=      5-min Rain = 0
KMC4 242232Z 04017KT 29/05 A2965 RMK A01 T02880046  RH  021%=      5-min Rain = 0
KMC4 242233Z 04020KT 29/05 A2965 RMK A01 T02860046  RH  022%=      5-min Rain = 0
KMC4 242234Z 03018G23KT 29/04 A2965 RMK A01 T02870037  RH  020%=      5-min Rain = 0
KMC4 242235Z 04021G27KT 29/04 A2965 RMK A01 T02880037  RH  020%=      5-min Rain = 0
KMC4 242236Z 03018G23KT 29/04 A2965 RMK A01 T02900037  RH  020%=      5-min Rain = 0
KMC4 242237Z 04017G22KT 29/04 A2964 RMK A01 T02910038  RH  020%=      5-min Rain = 0
KMC4 242238Z 03018G25KT 29/04 A2964 RMK A01 T02910038  RH  020%=      5-min Rain = 0
KMC4 242239Z 03032G47KT 29/03 A2962 RMK A01 T02910029  RH  019%=      5-min Rain = 0
KMC4 242240Z 02020G44KT 30/02 A2963 RMK A01 T02970016  RH  016%=      5-min Rain = 0
KMC4 242241Z 02020KT 30/02 A2964 RMK A01 T03010020  RH  017%=      5-min Rain = 0
KMC4 242242Z 02020KT 30/03 A2963 RMK A01 T03020027  RH  017%=      5-min Rain = 0
KMC4 242243Z 04024G29KT 30/03 A2963 RMK A01 T02980031  RH  018%=      5-min Rain = 0
KMC4 242244Z 05015KT 30/03 A2963 RMK A01 T02950028  RH  018%=      5-min Rain = 0
KMC4 242245Z 06017KT 30/02 A2963 RMK A01 T02990016  RH  016%=      5-min Rain = 0
KMC4 242246Z 06015G21KT 30/03 A2963 RMK A01 T03020026  RH  017%=      5-min Rain = 0
KMC4 242247Z 03012KT 30/03 A2964 RMK A01 T02990026  RH  017%=      5-min Rain = 0
KMC4 242248Z 04011KT 30/02 A2964 RMK A01 T03000023  RH  017%=      5-min Rain = 0
KMC4 242249Z 03013KT 30/03 A2964 RMK A01 T03000030  RH  018%=      5-min Rain = 0
KMC4 242250Z 02014KT 30/03 A2964 RMK A01 T02980025  RH  017%=      5-min Rain = 0
KMC4 242251Z 02014KT 30/02 A2964 RMK A01 T02990022  RH  017%=      5-min Rain = 0
KMC4 242252Z 03013G20KT 30/03 A2964 RMK A01 T02990029  RH  018%=      5-min Rain = 0
KMC4 242253Z 03016G21KT 30/03 A2963 RMK A01 T02980031  RH  018%=      5-min Rain = 0
KMC4 242254Z 04020KT 30/03 A2963 RMK A01 T02960033  RH  019%=      5-min Rain = 0
KMC4 242255Z 03019G26KT 30/03 A2964 RMK A01 T02960033  RH  019%=      5-min Rain = 0
KMC4 242256Z 03015KT 29/04 A2964 RMK A01 T02940035  RH  019%=      5-min Rain = 0
KMC4 242257Z 02014KT 29/03 A2964 RMK A01 T02930034  RH  019%=      5-min Rain = 0
KMC4 242258Z 03013G21KT 29/04 A2965 RMK A01 T02920038  RH  020%=      5-min Rain = 0
KMC4 242259Z 05012KT 29/04 A2965 RMK A01 T02900044  RH  021%=      5-min Rain = 0
KMC4 242300Z 07019G25KT 29/05 A2964 RMK A01 T02860049  RH  022%=      5-min Rain = 0
KMC4 242301Z 06016KT 28/05 A2964 RMK A01 T02820050  RH  023%=      5-min Rain = 0
KMC4 242302Z 06011KT 28/04 A2965 RMK A01 T02800044  RH  022%=      5-min Rain = 0
KMC4 242303Z 04008KT 28/05 A2966 RMK A01 T02810048  RH  023%=      5-min Rain = 0
KMC4 242304Z 04011KT 28/05 A2965 RMK A01 T02810049  RH  023%=      5-min Rain = 0
KMC4 242305Z 05010KT 28/05 A2965 RMK A01 T02800049  RH  023%=      5-min Rain = 0
KMC4 242306Z 05011KT 28/05 A2965 RMK A01 T02810050  RH  023%=      5-min Rain = 0
KMC4 242307Z 04012G17KT 28/05 A2965 RMK A01 T02800046  RH  022%=      5-min Rain = 0
KMC4 242308Z 05013KT 28/05 A2965 RMK A01 T02800051  RH  023%=      5-min Rain = 0
KMC4 242309Z 04015KT 28/05 A2965 RMK A01 T02800049  RH  023%=      5-min Rain = 0
KMC4 242310Z 04016G22KT 28/05 A2965 RMK A01 T02790047  RH  023%=      5-min Rain = 0
KMC4 242311Z 05015KT 28/05 A2965 RMK A01 T02800048  RH  023%=      5-min Rain = 0
KMC4 242312Z 05013KT 28/05 A2966 RMK A01 T02800049  RH  023%=      5-min Rain = 0
KMC4 242313Z 04014KT 28/05 A2966 RMK A01 T02800046  RH  022%=      5-min Rain = 0
KMC4 242314Z 04012KT 28/05 A2966 RMK A01 T02800048  RH  023%=      5-min Rain = 0
KMC4 242315Z 04013KT 28/05 A2966 RMK A01 T02810045  RH  022%=      5-min Rain = 0
KMC4 242316Z 04011KT 28/04 A2966 RMK A01 T02830043  RH  022%=      5-min Rain = 0
KMC4 242317Z 05007KT 28/05 A2966 RMK A01 T02840048  RH  022%=      5-min Rain = 0
KMC4 242318Z 06008KT 28/04 A2966 RMK A01 T02830044  RH  022%=      5-min Rain = 0
KMC4 242319Z 06009KT 28/04 A2966 RMK A01 T02840041  RH  021%=      5-min Rain = 0
KMC4 242320Z 05009KT 28/04 A2966 RMK A01 T02840042  RH  021%=      5-min Rain = 0
KMC4 242321Z 06008KT 29/04 A2966 RMK A01 T02850041  RH  021%=      5-min Rain = 0
KMC4 242322Z 07006KT 29/04 A2966 RMK A01 T02860039  RH  021%=      5-min Rain = 0
KMC4 242323Z 06006KT 29/04 A2966 RMK A01 T02860044  RH  021%=      5-min Rain = 0
KMC4 242324Z 05008KT 29/04 A2966 RMK A01 T02860043  RH  021%=      5-min Rain = 0
KMC4 242325Z 05007KT 29/04 A2967 RMK A01 T02860041  RH  021%=      5-min Rain = 0
KMC4 242326Z 02007G15KT 29/05 A2967 RMK A01 T02860045  RH  021%=      5-min Rain = 0
KMC4 242327Z 02011G17KT 29/04 A2967 RMK A01 T02860039  RH  021%=      5-min Rain = 0
KMC4 242328Z 04011KT 29/05 A2968 RMK A01 T02870046  RH  022%=      5-min Rain = 0
KMC4 242329Z 06006KT 29/05 A2968 RMK A01 T02860045  RH  021%=      5-min Rain = 0
KMC4 242330Z 04007KT 29/05 A2968 RMK A01 T02850045  RH  022%=      5-min Rain = 0
KMC4 242331Z 04010KT 28/05 A2968 RMK A01 T02840047  RH  022%=      5-min Rain = 0
KMC4 242332Z 04009G14KT 28/05 A2968 RMK A01 T02830046  RH  022%=      5-min Rain = 0
KMC4 242333Z 06013G18KT 28/05 A2967 RMK A01 T02820048  RH  023%=      5-min Rain = 0
KMC4 242334Z 06013G18KT 28/05 A2967 RMK A01 T02810053  RH  023%=      5-min Rain = 0
KMC4 242335Z 06013G19KT 28/05 A2967 RMK A01 T02790053  RH  024%=      5-min Rain = 0
KMC4 242336Z 06010KT 28/05 A2968 RMK A01 T02780052  RH  024%=      5-min Rain = 0
KMC4 242337Z 06010KT 28/05 A2968 RMK A01 T02770053  RH  024%=      5-min Rain = 0
KMC4 242338Z 06010KT 28/06 A2968 RMK A01 T02760057  RH  025%=      5-min Rain = 0
KMC4 242339Z 07010KT 28/06 A2968 RMK A01 T02750058  RH  025%=      5-min Rain = 0
KMC4 242340Z 07007KT 27/06 A2969 RMK A01 T02740058  RH  025%=      5-min Rain = 0
KMC4 242341Z 08006KT 27/06 A2969 RMK A01 T02740059  RH  025%=      5-min Rain = 0
KMC4 242342Z 09005KT 27/06 A2969 RMK A01 T02740055  RH  025%=      5-min Rain = 0
KMC4 242343Z 09009G16KT 27/06 A2969 RMK A01 T02730058  RH  025%=      5-min Rain = 0
KMC4 242344Z 06008G16KT 27/06 A2969 RMK A01 T02730056  RH  025%=      5-min Rain = 0
KMC4 242345Z 07002KT 27/06 A297 RMK A01 T02730060  RH  026%=      5-min Rain = 0
KMC4 242346Z 14004KT 27/06 A297 RMK A01 T02720058  RH  025%=      5-min Rain = 0
KMC4 242347Z 15003KT 27/06 A2971 RMK A01 T02720056  RH  025%=      5-min Rain = 0
KMC4 242348Z 16005KT 27/07 A2971 RMK A01 T02720065  RH  027%=      5-min Rain = 0
KMC4 242349Z 18006KT 27/07 A2971 RMK A01 T02700067  RH  028%=      5-min Rain = 0
KMC4 242350Z 14005KT 27/07 A2971 RMK A01 T02680067  RH  028%=      5-min Rain = 0
KMC4 242351Z 19005KT 27/06 A2972 RMK A01 T02670063  RH  027%=      5-min Rain = 0
KMC4 242352Z 19005KT 27/07 A2972 RMK A01 T02670068  RH  028%=      5-min Rain = 0
KMC4 242353Z 19009KT 27/07 A2972 RMK A01 T02660068  RH  028%=      5-min Rain = 0
KMC4 242354Z 19008KT 27/06 A2973 RMK A01 T02660063  RH  027%=      5-min Rain = 0
KMC4 242355Z 17007KT 27/07 A2973 RMK A01 T02670065  RH  028%=      5-min Rain = 0
KMC4 242356Z 14010KT 27/07 A2973 RMK A01 T02670069  RH  028%=      5-min Rain = 0
KMC4 242357Z 14011KT 27/07 A2973 RMK A01 T02650072  RH  029%=      5-min Rain = 0
KMC4 242358Z 15014KT 26/07 A2973 RMK A01 T02640068  RH  029%=      5-min Rain = 0
KMC4 242359Z 15014KT 26/06 A2973 RMK A01 T02640064  RH  028%=      5-min Rain = 0
KMC4 250000Z 14010KT 27/06 A2974 RMK A01 T02650062  RH  027%=      5-min Rain = 0
KMC4 250001Z 16010G17KT 27/06 A2973 RMK A01 T02660062  RH  027%=      5-min Rain = 0
KMC4 250002Z 18013KT 27/07 A2973 RMK A01 T02670066  RH  028%=      5-min Rain = 0
KMC4 250003Z 19011KT 27/07 A2973 RMK A01 T02650073  RH  030%=      5-min Rain = 0
KMC4 250004Z 19011KT 26/08 A2973 RMK A01 T02620078  RH  031%=      5-min Rain = 0
KMC4 250005Z 19009KT 26/08 A2974 RMK A01 T02580083  RH  033%=      5-min Rain = 0
KMC4 250006Z 19010KT 26/08 A2973 RMK A01 T02560078  RH  032%=      5-min Rain = 0
KMC4 250007Z 17007KT 26/08 A2973 RMK A01 T02560080  RH  033%=      5-min Rain = 0
KMC4 250008Z 14010KT 25/09 A2973 RMK A01 T02540090  RH  035%=      5-min Rain = 0
KMC4 250009Z 12014KT 25/08 A2973 RMK A01 T02520084  RH  034%=      5-min Rain = 0
KMC4 250010Z 12015KT 25/09 A2972 RMK A01 T02520089  RH  036%=      5-min Rain = 0
KMC4 250011Z 10014KT 25/08 A2972 RMK A01 T02520078  RH  033%=      5-min Rain = 0
KMC4 250012Z 10013KT 26/07 A2972 RMK A01 T02550071  RH  031%=      5-min Rain = 0
KMC4 250013Z 10012KT 26/07 A2972 RMK A01 T02590067  RH  029%=      5-min Rain = 0
KMC4 250014Z 11011KT 26/07 A2972 RMK A01 T02610065  RH  029%=      5-min Rain = 0
KMC4 250015Z 12012KT 26/07 A2972 RMK A01 T02620072  RH  030%=      5-min Rain = 0
KMC4 250016Z 12014KT 26/08 A2973 RMK A01 T02610078  RH  031%=      5-min Rain = 0
KMC4 250017Z 12015G21KT 26/07 A2972 RMK A01 T02590074  RH  031%=      5-min Rain = 0
KMC4 250018Z 13013KT 26/08 A2972 RMK A01 T02590077  RH  031%=      5-min Rain = 0
KMC4 250019Z 14018KT 26/08 A2972 RMK A01 T02590076  RH  031%=      5-min Rain = 0
KMC4 250020Z 13016KT 26/08 A2972 RMK A01 T02590078  RH  032%=      5-min Rain = 0
KMC4 250021Z 12017KT 26/08 A2972 RMK A01 T02590075  RH  031%=      5-min Rain = 0
KMC4 250022Z 12017KT 26/08 A2972 RMK A01 T02590075  RH  031%=      5-min Rain = 0
KMC4 250023Z 12015KT 26/07 A2973 RMK A01 T02590073  RH  031%=      5-min Rain = 0
KMC4 250024Z 10011KT 26/07 A2973 RMK A01 T02600073  RH  031%=      5-min Rain = 0
KMC4 250025Z 11008KT 26/07 A2973 RMK A01 T02600073  RH  030%=      5-min Rain = 0
KMC4 250026Z 11010KT 26/08 A2972 RMK A01 T02600076  RH  031%=      5-min Rain = 0
KMC4 250027Z 11013KT 26/08 A2972 RMK A01 T02600076  RH  031%=      5-min Rain = 0
KMC4 250028Z 11011KT 26/08 A2972 RMK A01 T02600075  RH  031%=      5-min Rain = 0
KMC4 250029Z 11011KT 26/08 A2972 RMK A01 T02600077  RH  031%=      5-min Rain = 0
KMC4 250030Z 11011KT 26/08 A2972 RMK A01 T02590079  RH  032%=      5-min Rain = 0
KMC4 250031Z 10009KT 26/08 A2971 RMK A01 T02590079  RH  032%=      5-min Rain = 0
KMC4 250032Z 10008KT 26/08 A2971 RMK A01 T02590082  RH  032%=      5-min Rain = 0
KMC4 250033Z 10011KT 26/08 A2971 RMK A01 T02590080  RH  032%=      5-min Rain = 0
KMC4 250034Z 10011KT 26/08 A2971 RMK A01 T02590081  RH  032%=      5-min Rain = 0
KMC4 250035Z 09011KT 26/08 A2971 RMK A01 T02590078  RH  032%=      5-min Rain = 0
KMC4 250036Z 09010KT 26/08 A2971 RMK A01 T02590078  RH  032%=      5-min Rain = 0
KMC4 250037Z 11011KT 26/08 A2971 RMK A01 T02590078  RH  032%=      5-min Rain = 0
KMC4 250038Z 11010KT 26/08 A2971 RMK A01 T02580080  RH  032%=      5-min Rain = 0
KMC4 250039Z 10012KT 26/08 A2971 RMK A01 T02580081  RH  033%=      5-min Rain = 0
KMC4 250040Z 10012KT 26/08 A2971 RMK A01 T02570080  RH  032%=      5-min Rain = 0
KMC4 250041Z 10010KT 26/08 A2971 RMK A01 T02570083  RH  033%=      5-min Rain = 0
KMC4 250042Z 09010KT 26/08 A2971 RMK A01 T02570084  RH  033%=      5-min Rain = 0
KMC4 250043Z 09009G14KT 26/09 A2971 RMK A01 T02570085  RH  034%=      5-min Rain = 0
KMC4 250044Z 10012G17KT 26/08 A2971 RMK A01 T02560083  RH  033%=      5-min Rain = 0
KMC4 250045Z 09013KT 26/08 A2971 RMK A01 T02560080  RH  033%=      5-min Rain = 0
KMC4 250046Z 10010KT 26/08 A2971 RMK A01 T02550083  RH  034%=      5-min Rain = 0
KMC4 250047Z 10014G19KT 26/08 A2971 RMK A01 T02550084  RH  034%=      5-min Rain = 0
KMC4 250048Z 10013G18KT 25/08 A2971 RMK A01 T02540082  RH  033%=      5-min Rain = 0
KMC4 250049Z 11010KT 25/09 A2971 RMK A01 T02530085  RH  034%=      5-min Rain = 0
KMC4 250050Z 11014KT 25/09 A2971 RMK A01 T02530087  RH  035%=      5-min Rain = 0
KMC4 250051Z 11013KT 25/09 A2971 RMK A01 T02520085  RH  035%=      5-min Rain = 0
KMC4 250052Z 11011KT 25/08 A2971 RMK A01 T02510084  RH  035%=      5-min Rain = 0
KMC4 250053Z 10010KT 25/09 A2971 RMK A01 T02500087  RH  035%=      5-min Rain = 0
KMC4 250054Z 10011KT 25/09 A2971 RMK A01 T02500086  RH  035%=      5-min Rain = 0
KMC4 250055Z 10011KT 25/09 A2971 RMK A01 T02500086  RH  035%=      5-min Rain = 0
KMC4 250056Z 11012G17KT 25/09 A297 RMK A01 T02500085  RH  035%=      5-min Rain = 0
KMC4 250057Z 10011KT 25/09 A297 RMK A01 T02490086  RH  035%=      5-min Rain = 0
KMC4 250058Z 11010KT 25/09 A297 RMK A01 T02490087  RH  036%=      5-min Rain = 0
KMC4 250059Z 10014KT 25/09 A297 RMK A01 T02480087  RH  036%=      5-min Rain = 0
KMC4 250100Z 10013KT 25/09 A297 RMK A01 T02480086  RH  036%=      5-min Rain = 0
KMC4 250101Z 11011KT 25/09 A297 RMK A01 T02480087  RH  036%=      5-min Rain = 0
KMC4 250102Z 11011KT 25/09 A2971 RMK A01 T02470090  RH  037%=      5-min Rain = 0
KMC4 250103Z 11013KT 25/09 A2971 RMK A01 T02470088  RH  036%=      5-min Rain = 0
KMC4 250104Z 11010KT 25/09 A2971 RMK A01 T02470087  RH  036%=      5-min Rain = 0
KMC4 250105Z 12012KT 25/09 A2971 RMK A01 T02470088  RH  036%=      5-min Rain = 0
KMC4 250106Z 12011KT 25/09 A2971 RMK A01 T02470088  RH  036%=      5-min Rain = 0
KMC4 250107Z 11012G17KT 25/09 A2971 RMK A01 T02460086  RH  036%=      5-min Rain = 0
KMC4 250108Z 10012KT 25/09 A2971 RMK A01 T02460085  RH  036%=      5-min Rain = 0
KMC4 250109Z 11009KT 25/09 A2971 RMK A01 T02470086  RH  036%=      5-min Rain = 0
KMC4 250110Z 10012KT 25/09 A2971 RMK A01 T02470087  RH  036%=      5-min Rain = 0
KMC4 250111Z 11009KT 25/09 A297 RMK A01 T02460085  RH  036%=      5-min Rain = 0
KMC4 250112Z 11012KT 25/09 A297 RMK A01 T02460086  RH  036%=      5-min Rain = 0
KMC4 250113Z 10009KT 25/09 A297 RMK A01 T02460086  RH  036%=      5-min Rain = 0
KMC4 250114Z 11013KT 25/09 A297 RMK A01 T02450087  RH  036%=      5-min Rain = 0
KMC4 250115Z 11014KT 25/09 A297 RMK A01 T02450085  RH  036%=      5-min Rain = 0
KMC4 250116Z 11011KT 24/09 A297 RMK A01 T02440085  RH  036%=      5-min Rain = 0
KMC4 250117Z 10011KT 24/09 A297 RMK A01 T02440086  RH  037%=      5-min Rain = 0
KMC4 250118Z 10011KT 24/09 A297 RMK A01 T02440086  RH  036%=      5-min Rain = 0
KMC4 250119Z 11008KT 24/09 A297 RMK A01 T02430088  RH  037%=      5-min Rain = 0
KMC4 250120Z 11009G14KT 24/09 A297 RMK A01 T02430090  RH  038%=      5-min Rain = 0
KMC4 250121Z 11011KT 24/09 A297 RMK A01 T02420088  RH  038%=      5-min Rain = 0
KMC4 250122Z 12008KT 24/09 A2971 RMK A01 T02410088  RH  038%=      5-min Rain = 0
KMC4 250123Z 12012KT 24/09 A2971 RMK A01 T02410090  RH  038%=      5-min Rain = 0
KMC4 250124Z 12012KT 24/09 A297 RMK A01 T02410088  RH  038%=      5-min Rain = 0
KMC4 250125Z 12012KT 24/09 A2971 RMK A01 T02410087  RH  037%=      5-min Rain = 0
KMC4 250126Z 11010KT 24/09 A2971 RMK A01 T02410088  RH  038%=      5-min Rain = 0
KMC4 250127Z 11013KT 24/09 A2971 RMK A01 T02400087  RH  038%=      5-min Rain = 0
KMC4 250128Z 11012KT 24/09 A2971 RMK A01 T02400085  RH  037%=      5-min Rain = 0
KMC4 250129Z 11012KT 24/09 A2971 RMK A01 T02400086  RH  037%=      5-min Rain = 0
KMC4 250130Z 11013KT 24/09 A2971 RMK A01 T02400085  RH  037%=      5-min Rain = 0
KMC4 250131Z 11012KT 24/08 A297 RMK A01 T02400084  RH  037%=      5-min Rain = 0
KMC4 250132Z 11014KT 24/09 A297 RMK A01 T02400085  RH  037%=      5-min Rain = 0
KMC4 250133Z 11012KT 24/09 A297 RMK A01 T02400085  RH  037%=      5-min Rain = 0
KMC4 250134Z 10012KT 24/08 A297 RMK A01 T02400083  RH  037%=      5-min Rain = 0
KMC4 250135Z 10011KT 24/09 A297 RMK A01 T02400085  RH  037%=      5-min Rain = 0
KMC4 250136Z 11012KT 24/08 A297 RMK A01 T02400083  RH  037%=      5-min Rain = 0
KMC4 250137Z 11010KT 24/08 A297 RMK A01 T02390083  RH  037%=      5-min Rain = 0
KMC4 250138Z 10009KT 24/08 A297 RMK A01 T02390084  RH  037%=      5-min Rain = 0
KMC4 250139Z 11007KT 24/09 A297 RMK A01 T02390085  RH  037%=      5-min Rain = 0
KMC4 250140Z 11008KT 24/09 A297 RMK A01 T02380088  RH  038%=      5-min Rain = 0
KMC4 250141Z 10008KT 24/09 A297 RMK A01 T02370088  RH  039%=      5-min Rain = 0
KMC4 250142Z 10008KT 24/09 A2969 RMK A01 T02360086  RH  038%=      5-min Rain = 0
KMC4 250143Z 10008KT 24/09 A2969 RMK A01 T02360085  RH  038%=      5-min Rain = 0
KMC4 250144Z 11007KT 24/09 A2969 RMK A01 T02360085  RH  038%=      5-min Rain = 0
KMC4 250145Z 10009KT 24/09 A2969 RMK A01 T02360088  RH  039%=      5-min Rain = 0
KMC4 250146Z 11011KT 24/09 A2969 RMK A01 T02350086  RH  039%=      5-min Rain = 0
KMC4 250147Z 10008KT 24/09 A2969 RMK A01 T02350087  RH  039%=      5-min Rain = 0
KMC4 250148Z 10007KT 24/09 A2969 RMK A01 T02350088  RH  039%=      5-min Rain = 0
KMC4 250149Z 11007KT 23/09 A2969 RMK A01 T02340089  RH  040%=      5-min Rain = 0
KMC4 250150Z 11009KT 23/09 A2969 RMK A01 T02330088  RH  040%=      5-min Rain = 0
KMC4 250151Z 12009KT 23/09 A2969 RMK A01 T02330085  RH  039%=      5-min Rain = 0
KMC4 250152Z 12008KT 23/09 A2969 RMK A01 T02340086  RH  039%=      5-min Rain = 0
KMC4 250153Z 13007KT 23/09 A2969 RMK A01 T02330089  RH  040%=      5-min Rain = 0
KMC4 250154Z 15007KT 23/09 A2969 RMK A01 T02320091  RH  041%=      5-min Rain = 0
KMC4 250155Z 15007KT 23/09 A2969 RMK A01 T02300092  RH  041%=      5-min Rain = 0
KMC4 250156Z 16008KT 23/09 A2969 RMK A01 T02280093  RH  042%=      5-min Rain = 0
KMC4 250157Z 17009KT 23/10 A2969 RMK A01 T02260096  RH  043%=      5-min Rain = 0
KMC4 250158Z 17007KT 22/10 A2969 RMK A01 T02240098  RH  045%=      5-min Rain = 0
KMC4 250159Z 17006KT 22/10 A2969 RMK A01 T02220099  RH  046%=      5-min Rain = 0
KMC4 250200Z 16005KT 22/10 A2969 RMK A01 T02200100  RH  047%=      5-min Rain = 0
KMC4 250201Z 17004KT 22/10 A2969 RMK A01 T02190101  RH  047%=      5-min Rain = 0
KMC4 250202Z 18005KT 22/10 A2969 RMK A01 T02180102  RH  048%=      5-min Rain = 0
KMC4 250203Z 18006KT 22/10 A2969 RMK A01 T02160102  RH  048%=      5-min Rain = 0
KMC4 250204Z 17008KT 22/10 A2969 RMK A01 T02150101  RH  048%=      5-min Rain = 0
KMC4 250205Z 18009KT 22/10 A2969 RMK A01 T02150101  RH  048%=      5-min Rain = 0
KMC4 250206Z 18009KT 22/10 A2969 RMK A01 T02150100  RH  048%=      5-min Rain = 0
KMC4 250207Z 18009KT 22/10 A2969 RMK A01 T02150101  RH  048%=      5-min Rain = 0
KMC4 250208Z 17008KT 21/10 A2969 RMK A01 T02140101  RH  048%=      5-min Rain = 0
KMC4 250209Z 18007KT 21/10 A2969 RMK A01 T02140102  RH  049%=      5-min Rain = 0
KMC4 250210Z 17007KT 21/10 A2968 RMK A01 T02130102  RH  049%=      5-min Rain = 0
KMC4 250211Z 17006KT 21/10 A2968 RMK A01 T02120102  RH  049%=      5-min Rain = 0
KMC4 250212Z 17006KT 21/10 A2968 RMK A01 T02120102  RH  050%=      5-min Rain = 0
KMC4 250213Z 18007KT 21/10 A2968 RMK A01 T02110104  RH  051%=      5-min Rain = 0
KMC4 250214Z 17005KT 21/11 A2968 RMK A01 T02100105  RH  051%=      5-min Rain = 0
KMC4 250215Z 18005KT 21/11 A2968 RMK A01 T02090106  RH  052%=      5-min Rain = 0
KMC4 250216Z 18006KT 21/11 A2968 RMK A01 T02070107  RH  052%=      5-min Rain = 0
KMC4 250217Z 18005KT 21/11 A2968 RMK A01 T02060107  RH  053%=      5-min Rain = 0
KMC4 250218Z 17005KT 21/11 A2967 RMK A01 T02050107  RH  053%=      5-min Rain = 0
KMC4 250219Z 17004KT 21/11 A2967 RMK A01 T02050106  RH  053%=      5-min Rain = 0
KMC4 250220Z 17006KT 20/11 A2967 RMK A01 T02040107  RH  053%=      5-min Rain = 0
KMC4 250221Z 17005KT 20/11 A2967 RMK A01 T02040106  RH  053%=      5-min Rain = 0
KMC4 250222Z 16007KT 20/11 A2967 RMK A01 T02040106  RH  053%=      5-min Rain = 0
KMC4 250223Z 16007KT 20/11 A2967 RMK A01 T02040105  RH  053%=      5-min Rain = 0
KMC4 250224Z 16006KT 20/11 A2967 RMK A01 T02040106  RH  053%=      5-min Rain = 0
KMC4 250225Z 16006KT 20/11 A2967 RMK A01 T02030105  RH  053%=      5-min Rain = 0
KMC4 250226Z 16006KT 20/11 A2967 RMK A01 T02030105  RH  053%=      5-min Rain = 0
KMC4 250227Z 16005KT 20/11 A2966 RMK A01 T02020106  RH  054%=      5-min Rain = 0
KMC4 250228Z 17005KT 20/11 A2966 RMK A01 T02020106  RH  054%=      5-min Rain = 0
KMC4 250229Z 18006KT 20/11 A2966 RMK A01 T02010105  RH  054%=      5-min Rain = 0
KMC4 250230Z 18006KT 20/10 A2966 RMK A01 T02010104  RH  054%=      5-min Rain = 0
KMC4 250231Z 18007KT 20/10 A2966 RMK A01 T02010104  RH  054%=      5-min Rain = 0
KMC4 250232Z 18006KT 20/10 A2966 RMK A01 T02010104  RH  054%=      5-min Rain = 0
KMC4 250233Z 18005KT 20/11 A2966 RMK A01 T02000105  RH  054%=      5-min Rain = 0
KMC4 250234Z 17004KT 20/10 A2966 RMK A01 T02000104  RH  054%=      5-min Rain = 0
KMC4 250235Z 17005KT 20/11 A2965 RMK A01 T01990105  RH  054%=      5-min Rain = 0
KMC4 250236Z 17005KT 20/11 A2965 RMK A01 T01990105  RH  055%=      5-min Rain = 0
KMC4 250237Z 17005KT 20/11 A2966 RMK A01 T01980106  RH  055%=      5-min Rain = 0
KMC4 250238Z 18006KT 20/11 A2966 RMK A01 T01980106  RH  056%=      5-min Rain = 0
KMC4 250239Z 18007KT 20/11 A2966 RMK A01 T01960106  RH  056%=      5-min Rain = 0
KMC4 250240Z 18007KT 20/11 A2966 RMK A01 T01960106  RH  056%=      5-min Rain = 0
KMC4 250241Z 18006KT 20/11 A2966 RMK A01 T01950106  RH  056%=      5-min Rain = 0
KMC4 250242Z 18006KT 20/11 A2966 RMK A01 T01950106  RH  057%=      5-min Rain = 0
KMC4 250243Z 17005KT 19/11 A2966 RMK A01 T01940105  RH  056%=      5-min Rain = 0
KMC4 250244Z 17005KT 19/11 A2966 RMK A01 T01940106  RH  057%=      5-min Rain = 0
KMC4 250245Z 17006KT 19/11 A2966 RMK A01 T01940106  RH  057%=      5-min Rain = 0
KMC4 250246Z 17007KT 19/11 A2966 RMK A01 T01930106  RH  057%=      5-min Rain = 0
KMC4 250247Z 17006KT 19/11 A2966 RMK A01 T01920105  RH  057%=      5-min Rain = 0
KMC4 250248Z 18007KT 19/11 A2966 RMK A01 T01920106  RH  057%=      5-min Rain = 0
KMC4 250249Z 18008KT 19/11 A2966 RMK A01 T01920105  RH  057%=      5-min Rain = 0
KMC4 250250Z 18006KT 19/10 A2966 RMK A01 T01920104  RH  057%=      5-min Rain = 0
KMC4 250251Z 19005KT 19/11 A2966 RMK A01 T01930105  RH  057%=      5-min Rain = 0
KMC4 250252Z 19006KT 19/11 A2966 RMK A01 T01920106  RH  057%=      5-min Rain = 0
KMC4 250253Z 18007KT 19/11 A2966 RMK A01 T01930108  RH  058%=      5-min Rain = 0
KMC4 250254Z 18007KT 19/11 A2966 RMK A01 T01920109  RH  058%=      5-min Rain = 0
KMC4 250255Z 18007KT 19/11 A2966 RMK A01 T01930110  RH  059%=      5-min Rain = 0
KMC4 250256Z 18006KT 19/11 A2967 RMK A01 T01920111  RH  059%=      5-min Rain = 0
KMC4 250257Z 18006KT 19/11 A2967 RMK A01 T01910111  RH  060%=      5-min Rain = 0
KMC4 250258Z 18006KT 19/11 A2967 RMK A01 T01910112  RH  060%=      5-min Rain = 0
KMC4 250259Z 18006KT 19/11 A2967 RMK A01 T01900113  RH  061%=      5-min Rain = 0
KMC4 250300Z 18005KT 19/11 A2967 RMK A01 T01890113  RH  061%=      5-min Rain = 0
KMC4 250301Z 16003KT 19/12 A2967 RMK A01 T01890115  RH  062%=      5-min Rain = 0
KMC4 250302Z 16003KT 19/12 A2967 RMK A01 T01880115  RH  063%=      5-min Rain = 0
KMC4 250303Z 15003KT 19/12 A2967 RMK A01 T01880115  RH  062%=      5-min Rain = 0
KMC4 250304Z 15005KT 19/12 A2967 RMK A01 T01870116  RH  063%=      5-min Rain = 0
KMC4 250305Z 16005KT 19/12 A2967 RMK A01 T01860116  RH  064%=      5-min Rain = 0
KMC4 250306Z 16005KT 19/12 A2967 RMK A01 T01860117  RH  064%=      5-min Rain = 0
KMC4 250307Z 15005KT 19/12 A2968 RMK A01 T01860117  RH  064%=      5-min Rain = 0
KMC4 250308Z 14004KT 19/12 A2968 RMK A01 T01850118  RH  065%=      5-min Rain = 0
KMC4 250309Z 14005KT 18/12 A2968 RMK A01 T01840118  RH  066%=      5-min Rain = 0
KMC4 250310Z 14004KT 18/12 A2968 RMK A01 T01830118  RH  066%=      5-min Rain = 0
KMC4 250311Z 14005KT 18/12 A2968 RMK A01 T01830118  RH  066%=      5-min Rain = 0
KMC4 250312Z 15005KT 18/12 A2968 RMK A01 T01820118  RH  066%=      5-min Rain = 0
KMC4 250313Z 15005KT 18/12 A2968 RMK A01 T01820117  RH  066%=      5-min Rain = 0
KMC4 250314Z 16005KT 18/12 A2968 RMK A01 T01820117  RH  066%=      5-min Rain = 0
KMC4 250315Z 15005KT 18/12 A2968 RMK A01 T01820118  RH  066%=      5-min Rain = 0
KMC4 250316Z 15005KT 18/12 A2969 RMK A01 T01820117  RH  066%=      5-min Rain = 0
KMC4 250317Z 15006KT 18/12 A2969 RMK A01 T01820117  RH  066%=      5-min Rain = 0
KMC4 250318Z 15006KT 18/12 A2969 RMK A01 T01820117  RH  066%=      5-min Rain = 0
KMC4 250319Z 16007KT 18/12 A2969 RMK A01 T01820117  RH  066%=      5-min Rain = 0
KMC4 250320Z 16008KT 18/12 A2969 RMK A01 T01820117  RH  066%=      5-min Rain = 0
KMC4 250321Z 16007KT 18/12 A2969 RMK A01 T01820117  RH  066%=      5-min Rain = 0
KMC4 250322Z 16007KT 18/12 A2969 RMK A01 T01810117  RH  066%=      5-min Rain = 0
KMC4 250323Z 17006KT 18/12 A2969 RMK A01 T01810117  RH  066%=      5-min Rain = 0
KMC4 250324Z 18005KT 18/12 A2969 RMK A01 T01810117  RH  066%=      5-min Rain = 0
KMC4 250325Z 19004KT 18/12 A297 RMK A01 T01810117  RH  066%=      5-min Rain = 0
KMC4 250326Z 18003KT 18/12 A297 RMK A01 T01810116  RH  066%=      5-min Rain = 0
KMC4 250327Z 17005KT 18/12 A297 RMK A01 T01810116  RH  066%=      5-min Rain = 0
KMC4 250328Z 16006KT 18/12 A297 RMK A01 T01810116  RH  066%=      5-min Rain = 0
KMC4 250329Z 15008KT 18/12 A2969 RMK A01 T01800117  RH  066%=      5-min Rain = 0
KMC4 250330Z 15008KT 18/12 A2969 RMK A01 T01800117  RH  067%=      5-min Rain = 0
KMC4 250331Z 15007KT 18/12 A297 RMK A01 T01790118  RH  067%=      5-min Rain = 0
KMC4 250332Z 16006KT 18/12 A297 RMK A01 T01790118  RH  067%=      5-min Rain = 0
KMC4 250333Z 18005KT 18/12 A2971 RMK A01 T01780117  RH  067%=      5-min Rain = 0
KMC4 250334Z 18004KT 18/12 A2971 RMK A01 T01780116  RH  067%=      5-min Rain = 0
KMC4 250335Z 17004KT 18/12 A2971 RMK A01 T01780115  RH  066%=      5-min Rain = 0
KMC4 250336Z 17004KT 18/11 A2971 RMK A01 T01790114  RH  066%=      5-min Rain = 0
KMC4 250337Z 16004KT 18/11 A2971 RMK A01 T01790114  RH  066%=      5-min Rain = 0
KMC4 250338Z 15005KT 18/12 A2971 RMK A01 T01790115  RH  066%=      5-min Rain = 0
KMC4 250339Z 15005KT 18/12 A2971 RMK A01 T01790116  RH  066%=      5-min Rain = 0
KMC4 250340Z 15006KT 18/12 A2971 RMK A01 T01790116  RH  067%=      5-min Rain = 0
KMC4 250341Z 15006KT 18/12 A2971 RMK A01 T01780117  RH  068%=      5-min Rain = 0
KMC4 250342Z 15006KT 18/12 A2971 RMK A01 T01780118  RH  068%=      5-min Rain = 0
KMC4 250343Z 15006KT 18/12 A2971 RMK A01 T01770118  RH  068%=      5-min Rain = 0
KMC4 250344Z 15005KT 18/12 A2972 RMK A01 T01770117  RH  068%=      5-min Rain = 0
KMC4 250345Z 15004KT 18/12 A2972 RMK A01 T01770118  RH  068%=      5-min Rain = 0
KMC4 250346Z 14003KT 18/12 A2972 RMK A01 T01770117  RH  068%=      5-min Rain = 0
KMC4 250347Z 14002KT 18/12 A2972 RMK A01 T01760117  RH  068%=      5-min Rain = 0
KMC4 250348Z 14002KT 18/12 A2972 RMK A01 T01760117  RH  068%=      5-min Rain = 0
KMC4 250349Z 14002KT 18/12 A2972 RMK A01 T01760117  RH  068%=      5-min Rain = 0
KMC4 250350Z 13002KT 18/12 A2973 RMK A01 T01750117  RH  069%=      5-min Rain = 0
KMC4 250351Z 12002KT 18/12 A2973 RMK A01 T01750117  RH  069%=      5-min Rain = 0
KMC4 250352Z 10003KT 18/12 A2973 RMK A01 T01750117  RH  068%=      5-min Rain = 0
KMC4 250353Z 10003KT 18/12 A2973 RMK A01 T01750117  RH  068%=      5-min Rain = 0
KMC4 250354Z 10003KT 18/12 A2973 RMK A01 T01750117  RH  068%=      5-min Rain = 0
KMC4 250355Z 11003KT 18/12 A2973 RMK A01 T01750116  RH  068%=      5-min Rain = 0
KMC4 250356Z 10003KT 18/12 A2973 RMK A01 T01760115  RH  068%=      5-min Rain = 0
KMC4 250357Z 10004KT 18/12 A2973 RMK A01 T01760116  RH  068%=      5-min Rain = 0
KMC4 250358Z 10004KT 18/12 A2974 RMK A01 T01770116  RH  068%=      5-min Rain = 0
KMC4 250359Z 10004KT 18/12 A2974 RMK A01 T01770116  RH  067%=      5-min Rain = 0
KMC4 250400Z 10003KT 18/12 A2974 RMK A01 T01770116  RH  067%=      5-min Rain = 0
KMC4 250401Z 12003KT 18/11 A2974 RMK A01 T01770114  RH  067%=      5-min Rain = 0
KMC4 250402Z 12003KT 18/11 A2974 RMK A01 T01770114  RH  067%=      5-min Rain = 0
KMC4 250403Z 13003KT 18/12 A2974 RMK A01 T01780115  RH  067%=      5-min Rain = 0
KMC4 250404Z 12003KT 18/12 A2975 RMK A01 T01780116  RH  067%=      5-min Rain = 0
KMC4 250405Z 12003KT 18/12 A2975 RMK A01 T01780116  RH  067%=      5-min Rain = 0
KMC4 250406Z 12003KT 18/12 A2975 RMK A01 T01770116  RH  067%=      5-min Rain = 0
KMC4 250407Z 11003KT 18/12 A2975 RMK A01 T01770115  RH  067%=      5-min Rain = 0
KMC4 250408Z 11002KT 18/12 A2975 RMK A01 T01770115  RH  067%=      5-min Rain = 0
KMC4 250409Z 10003KT 18/12 A2975 RMK A01 T01770115  RH  067%=      5-min Rain = 0
KMC4 250410Z 10003KT 18/11 A2975 RMK A01 T01770114  RH  066%=      5-min Rain = 0
KMC4 250411Z 10003KT 18/11 A2975 RMK A01 T01780114  RH  066%=      5-min Rain = 0
KMC4 250412Z 09003KT 18/11 A2975 RMK A01 T01780114  RH  066%=      5-min Rain = 0
KMC4 250413Z 10003KT 18/11 A2976 RMK A01 T01780114  RH  066%=      5-min Rain = 0
KMC4 250414Z 10004KT 18/12 A2976 RMK A01 T01780115  RH  066%=      5-min Rain = 0
KMC4 250415Z 10004KT 18/12 A2976 RMK A01 T01780115  RH  067%=      5-min Rain = 0
KMC4 250416Z 09004KT 18/12 A2976 RMK A01 T01780116  RH  067%=      5-min Rain = 0
KMC4 250417Z 08004KT 18/12 A2976 RMK A01 T01780116  RH  067%=      5-min Rain = 0
KMC4 250418Z 07004KT 18/12 A2976 RMK A01 T01780116  RH  067%=      5-min Rain = 0
KMC4 250419Z 06004KT 18/11 A2976 RMK A01 T01780114  RH  066%=      5-min Rain = 0
KMC4 250420Z 05004KT 18/11 A2976 RMK A01 T01780114  RH  066%=      5-min Rain = 0
KMC4 250421Z 04004KT 18/12 A2976 RMK A01 T01790115  RH  066%=      5-min Rain = 0
KMC4 250422Z 04003KT 18/12 A2976 RMK A01 T01790115  RH  066%=      5-min Rain = 0
KMC4 250423Z 03003KT 18/12 A2976 RMK A01 T01790116  RH  067%=      5-min Rain = 0
KMC4 250424Z 03004KT 18/12 A2976 RMK A01 T01780116  RH  067%=      5-min Rain = 0
KMC4 250425Z 03004KT 18/12 A2976 RMK A01 T01780117  RH  067%=      5-min Rain = 0
KMC4 250426Z 04005KT 18/12 A2976 RMK A01 T01780116  RH  067%=      5-min Rain = 0
KMC4 250427Z 04005KT 18/12 A2976 RMK A01 T01770116  RH  067%=      5-min Rain = 0
KMC4 250428Z 04004KT 18/12 A2976 RMK A01 T01770117  RH  068%=      5-min Rain = 0
KMC4 250429Z 05005KT 18/12 A2976 RMK A01 T01770116  RH  067%=      5-min Rain = 0
KMC4 250430Z 05005KT 18/12 A2977 RMK A01 T01770116  RH  067%=      5-min Rain = 0
KMC4 250431Z 05005KT 18/12 A2977 RMK A01 T01770115  RH  067%=      5-min Rain = 0
KMC4 250432Z 05005KT 18/12 A2977 RMK A01 T01770115  RH  067%=      5-min Rain = 0
KMC4 250433Z 05005KT 18/12 A2977 RMK A01 T01780115  RH  067%=      5-min Rain = 0
KMC4 250434Z 05004KT 18/11 A2977 RMK A01 T01770114  RH  066%=      5-min Rain = 0
KMC4 250435Z 04005KT 18/11 A2977 RMK A01 T01780114  RH  066%=      5-min Rain = 0
KMC4 250436Z 03004KT 18/12 A2977 RMK A01 T01780115  RH  067%=      5-min Rain = 0
KMC4 250437Z 03004KT 18/12 A2977 RMK A01 T01780115  RH  067%=      5-min Rain = 0
KMC4 250438Z 04005KT 18/12 A2977 RMK A01 T01780115  RH  067%=      5-min Rain = 0
KMC4 250439Z 03005KT 18/12 A2977 RMK A01 T01780116  RH  067%=      5-min Rain = 0
KMC4 250440Z 04005KT 18/12 A2977 RMK A01 T01780116  RH  067%=      5-min Rain = 0
KMC4 250441Z 04005KT 18/12 A2977 RMK A01 T01770115  RH  067%=      5-min Rain = 0
KMC4 250442Z 05005KT 18/12 A2977 RMK A01 T01770115  RH  067%=      5-min Rain = 0
KMC4 250443Z 05005KT 18/11 A2977 RMK A01 T01770114  RH  066%=      5-min Rain = 0
KMC4 250444Z 05005KT 18/11 A2978 RMK A01 T01780114  RH  066%=      5-min Rain = 0
KMC4 250445Z 05005KT 18/11 A2978 RMK A01 T01780114  RH  066%=      5-min Rain = 0
KMC4 250446Z 05005KT 18/11 A2978 RMK A01 T01780114  RH  066%=      5-min Rain = 0
KMC4 250447Z 05004KT 18/11 A2978 RMK A01 T01770114  RH  066%=      5-min Rain = 0
KMC4 250448Z 05004KT 18/11 A2978 RMK A01 T01770113  RH  066%=      5-min Rain = 0
KMC4 250449Z 05005KT 18/11 A2977 RMK A01 T01770113  RH  066%=      5-min Rain = 0
KMC4 250450Z 05004KT 18/11 A2977 RMK A01 T01770113  RH  066%=      5-min Rain = 0
KMC4 250451Z 05005KT 18/11 A2977 RMK A01 T01770114  RH  066%=      5-min Rain = 0
KMC4 250452Z 05005KT 18/11 A2977 RMK A01 T01770113  RH  066%=      5-min Rain = 0
KMC4 250453Z 05004KT 18/11 A2977 RMK A01 T01770111  RH  065%=      5-min Rain = 0
KMC4 250454Z 05004KT 18/11 A2977 RMK A01 T01770110  RH  065%=      5-min Rain = 0
KMC4 250455Z 05003KT 18/11 A2977 RMK A01 T01780111  RH  065%=      5-min Rain = 0
KMC4 250456Z 04004KT 18/11 A2977 RMK A01 T01780112  RH  065%=      5-min Rain = 0
KMC4 250457Z 05004KT 18/11 A2977 RMK A01 T01780111  RH  064%=      5-min Rain = 0
KMC4 250458Z 05004KT 18/11 A2977 RMK A01 T01780109  RH  064%=      5-min Rain = 0
KMC4 250459Z 05005KT 18/11 A2978 RMK A01 T01790110  RH  064%=      5-min Rain = 0

Page generated in 0.1456 seconds.